<?xml version="1.0" encoding="UTF-8" standalone="no" ?><gpx xmlns="http://www.topografix.com/GPX/1/1" xmlns:gpxx="http://www.garmin.com/xmlschemas/GpxExtensions/v3" xmlns:wptx1="http://www.garmin.com/xmlschemas/WaypointExtension/v1" xmlns:gpxtpx="http://www.garmin.com/xmlschemas/TrackPointExtension/v1" creator="Dakota 20" version="1.1" xmlns:xsi="http://www.w3.org/2001/XMLSchema-instance" xsi:schemaLocation="http://www.topografix.com/GPX/1/1 http://www.topografix.com/GPX/1/1/gpx.xsd http://www.garmin.com/xmlschemas/GpxExtensions/v3 http://www8.garmin.com/xmlschemas/GpxExtensionsv3.xsd http://www.garmin.com/xmlschemas/WaypointExtension/v1 http://www8.garmin.com/xmlschemas/WaypointExtensionv1.xsd http://www.garmin.com/xmlschemas/TrackPointExtension/v1 http://www.garmin.com/xmlschemas/TrackPointExtensionv1.xsd"><metadata><link href="http://www.garmin.com"><text>Garmin International</text></link><time>2015-10-28T14:56:39Z</time></metadata><trk><name>28-OCT-15 14:56:37</name><extensions><gpxx:TrackExtension><gpxx:DisplayColor>Cyan</gpxx:DisplayColor></gpxx:TrackExtension></extensions><trkseg><trkpt lat="51.7923857924" lon="-2.1590148937"><ele>148.66</ele><time>2015-10-28T10:05:18Z</time></trkpt><trkpt lat="51.7923863791" lon="-2.1590152290"><ele>148.66</ele><time>2015-10-28T10:05:19Z</time></trkpt><trkpt lat="51.7923737224" lon="-2.1590514388"><ele>147.70</ele><time>2015-10-28T10:05:27Z</time></trkpt><trkpt lat="51.7923898995" lon="-2.1593248565"><ele>148.18</ele><time>2015-10-28T10:05:44Z</time></trkpt><trkpt lat="51.7924598046" lon="-2.1595739666"><ele>148.66</ele><time>2015-10-28T10:05:59Z</time></trkpt><trkpt lat="51.7924327310" lon="-2.1596239228"><ele>149.14</ele><time>2015-10-28T10:06:14Z</time></trkpt><trkpt lat="51.7924495786" lon="-2.1596781537"><ele>149.14</ele><time>2015-10-28T10:06:35Z</time></trkpt><trkpt lat="51.7924663424" lon="-2.1597310435"><ele>149.62</ele><time>2015-10-28T10:06:52Z</time></trkpt><trkpt lat="51.7924708687" lon="-2.1598049719"><ele>149.62</ele><time>2015-10-28T10:07:10Z</time></trkpt><trkpt lat="51.7924789153" lon="-2.1598664951"><ele>149.62</ele><time>2015-10-28T10:07:13Z</time></trkpt><trkpt lat="51.7925138678" lon="-2.1601077262"><ele>149.62</ele><time>2015-10-28T10:07:25Z</time></trkpt><trkpt lat="51.7925838567" lon="-2.1602808964"><ele>150.10</ele><time>2015-10-28T10:07:39Z</time></trkpt><trkpt lat="51.7927400954" lon="-2.1604218800"><ele>151.06</ele><time>2015-10-28T10:07:56Z</time></trkpt><trkpt lat="51.7928619683" lon="-2.1605336107"><ele>152.99</ele><time>2015-10-28T10:08:13Z</time></trkpt><trkpt lat="51.7930617929" lon="-2.1606181841"><ele>154.43</ele><time>2015-10-28T10:08:35Z</time></trkpt><trkpt lat="51.7931822408" lon="-2.1605713293"><ele>154.91</ele><time>2015-10-28T10:08:52Z</time></trkpt><trkpt lat="51.7932498828" lon="-2.1605064534"><ele>153.95</ele><time>2015-10-28T10:09:09Z</time></trkpt><trkpt lat="51.7933539022" lon="-2.1604730096"><ele>152.51</ele><time>2015-10-28T10:09:24Z</time></trkpt><trkpt lat="51.7934281658" lon="-2.1604851633"><ele>150.10</ele><time>2015-10-28T10:09:39Z</time></trkpt><trkpt lat="51.7936907709" lon="-2.1606708225"><ele>149.62</ele><time>2015-10-28T10:09:53Z</time></trkpt><trkpt lat="51.7938406393" lon="-2.1606545616"><ele>149.62</ele><time>2015-10-28T10:10:13Z</time></trkpt><trkpt lat="51.7938993126" lon="-2.1606670506"><ele>150.10</ele><time>2015-10-28T10:10:29Z</time></trkpt><trkpt lat="51.7939055152" lon="-2.1606652904"><ele>149.62</ele><time>2015-10-28T10:10:43Z</time></trkpt><trkpt lat="51.7939127237" lon="-2.1606621053"><ele>150.10</ele><time>2015-10-28T10:10:44Z</time></trkpt><trkpt lat="51.7940831278" lon="-2.1605590079"><ele>152.03</ele><time>2015-10-28T10:11:01Z</time></trkpt><trkpt lat="51.7942245305" lon="-2.1603782102"><ele>152.99</ele><time>2015-10-28T10:11:16Z</time></trkpt><trkpt lat="51.7942751572" lon="-2.1602899488"><ele>153.95</ele><time>2015-10-28T10:11:23Z</time></trkpt><trkpt lat="51.7943221796" lon="-2.1601902880"><ele>154.91</ele><time>2015-10-28T10:11:31Z</time></trkpt><trkpt lat="51.7943840381" lon="-2.1600072272"><ele>156.35</ele><time>2015-10-28T10:11:46Z</time></trkpt><trkpt lat="51.7944593914" lon="-2.1598665789"><ele>157.79</ele><time>2015-10-28T10:11:59Z</time></trkpt><trkpt lat="51.7945719603" lon="-2.1597649902"><ele>159.72</ele><time>2015-10-28T10:12:12Z</time></trkpt><trkpt lat="51.7947208229" lon="-2.1596805844"><ele>162.12</ele><time>2015-10-28T10:12:29Z</time></trkpt><trkpt lat="51.7948069889" lon="-2.1596031357"><ele>164.04</ele><time>2015-10-28T10:12:44Z</time></trkpt><trkpt lat="51.7948220763" lon="-2.1595846955"><ele>164.52</ele><time>2015-10-28T10:12:54Z</time></trkpt><trkpt lat="51.7948424444" lon="-2.1595745534"><ele>165.48</ele><time>2015-10-28T10:13:12Z</time></trkpt><trkpt lat="51.7948656622" lon="-2.1595327277"><ele>165.96</ele><time>2015-10-28T10:13:36Z</time></trkpt><trkpt lat="51.7949457932" lon="-2.1594944224"><ele>167.41</ele><time>2015-10-28T10:13:51Z</time></trkpt><trkpt lat="51.7950193025" lon="-2.1593987010"><ele>169.81</ele><time>2015-10-28T10:14:07Z</time></trkpt><trkpt lat="51.7950512376" lon="-2.1592723858"><ele>171.73</ele><time>2015-10-28T10:14:22Z</time></trkpt><trkpt lat="51.7950715218" lon="-2.1591346711"><ele>173.17</ele><time>2015-10-28T10:14:37Z</time></trkpt><trkpt lat="51.7951203045" lon="-2.1589532867"><ele>175.58</ele><time>2015-10-28T10:14:55Z</time></trkpt><trkpt lat="51.7951575201" lon="-2.1589099523"><ele>176.06</ele><time>2015-10-28T10:15:12Z</time></trkpt><trkpt lat="51.7951690033" lon="-2.1589208487"><ele>176.06</ele><time>2015-10-28T10:15:29Z</time></trkpt><trkpt lat="51.7951866891" lon="-2.1589337569"><ele>178.94</ele><time>2015-10-28T10:15:48Z</time></trkpt><trkpt lat="51.7952086497" lon="-2.1589277219"><ele>179.90</ele><time>2015-10-28T10:16:06Z</time></trkpt><trkpt lat="51.7952246591" lon="-2.1589321643"><ele>180.87</ele><time>2015-10-28T10:16:28Z</time></trkpt><trkpt lat="51.7952496372" lon="-2.1589198429"><ele>182.79</ele><time>2015-10-28T10:16:49Z</time></trkpt><trkpt lat="51.7953562550" lon="-2.1589052584"><ele>184.23</ele><time>2015-10-28T10:17:04Z</time></trkpt><trkpt lat="51.7954073846" lon="-2.1588755865"><ele>184.71</ele><time>2015-10-28T10:17:24Z</time></trkpt><trkpt lat="51.7954596039" lon="-2.1588399634"><ele>186.63</ele><time>2015-10-28T10:17:51Z</time></trkpt><trkpt lat="51.7955845781" lon="-2.1587904263"><ele>190.00</ele><time>2015-10-28T10:18:05Z</time></trkpt><trkpt lat="51.7956953030" lon="-2.1587207727"><ele>192.88</ele><time>2015-10-28T10:18:22Z</time></trkpt><trkpt lat="51.7957158387" lon="-2.1587384585"><ele>192.40</ele><time>2015-10-28T10:18:47Z</time></trkpt><trkpt lat="51.7957666330" lon="-2.1587444935"><ele>194.32</ele><time>2015-10-28T10:19:10Z</time></trkpt><trkpt lat="51.7958971392" lon="-2.1588248760"><ele>196.73</ele><time>2015-10-28T10:19:30Z</time></trkpt><trkpt lat="51.7960315850" lon="-2.1589515265"><ele>199.13</ele><time>2015-10-28T10:19:54Z</time></trkpt><trkpt lat="51.7960921023" lon="-2.1590300649"><ele>200.09</ele><time>2015-10-28T10:20:12Z</time></trkpt><trkpt lat="51.7961539607" lon="-2.1592252795"><ele>199.61</ele><time>2015-10-28T10:20:28Z</time></trkpt><trkpt lat="51.7961983010" lon="-2.1593028121"><ele>200.09</ele><time>2015-10-28T10:20:47Z</time></trkpt><trkpt lat="51.7962625064" lon="-2.1593680233"><ele>200.09</ele><time>2015-10-28T10:21:04Z</time></trkpt><trkpt lat="51.7963868938" lon="-2.1595403552"><ele>201.05</ele><time>2015-10-28T10:21:19Z</time></trkpt><trkpt lat="51.7964256182" lon="-2.1596612222"><ele>201.53</ele><time>2015-10-28T10:21:36Z</time></trkpt><trkpt lat="51.7964521889" lon="-2.1598691773"><ele>201.53</ele><time>2015-10-28T10:21:48Z</time></trkpt><trkpt lat="51.7964788433" lon="-2.1599770524"><ele>202.01</ele><time>2015-10-28T10:22:04Z</time></trkpt><trkpt lat="51.7964966968" lon="-2.1600981709"><ele>201.53</ele><time>2015-10-28T10:22:17Z</time></trkpt><trkpt lat="51.7965370975" lon="-2.1601830795"><ele>202.49</ele><time>2015-10-28T10:22:26Z</time></trkpt><trkpt lat="51.7965751514" lon="-2.1603031922"><ele>202.98</ele><time>2015-10-28T10:22:40Z</time></trkpt><trkpt lat="51.7965632491" lon="-2.1604618616"><ele>202.49</ele><time>2015-10-28T10:22:53Z</time></trkpt><trkpt lat="51.7965647578" lon="-2.1604631189"><ele>202.49</ele><time>2015-10-28T10:23:14Z</time></trkpt><trkpt lat="51.7965766601" lon="-2.1604644600"><ele>202.49</ele><time>2015-10-28T10:23:38Z</time></trkpt><trkpt lat="51.7966182344" lon="-2.1605457645"><ele>202.01</ele><time>2015-10-28T10:24:00Z</time></trkpt><trkpt lat="51.7966120318" lon="-2.1606087964"><ele>202.98</ele><time>2015-10-28T10:24:15Z</time></trkpt><trkpt lat="51.7966129538" lon="-2.1606677212"><ele>202.98</ele><time>2015-10-28T10:24:32Z</time></trkpt><trkpt lat="51.7966438830" lon="-2.1607508697"><ele>202.01</ele><time>2015-10-28T10:24:44Z</time></trkpt><trkpt lat="51.7967147939" lon="-2.1609094553"><ele>200.09</ele><time>2015-10-28T10:24:57Z</time></trkpt><trkpt lat="51.7967650853" lon="-2.1609243751"><ele>199.13</ele><time>2015-10-28T10:25:08Z</time></trkpt><trkpt lat="51.7968008760" lon="-2.1609840542"><ele>198.17</ele><time>2015-10-28T10:25:22Z</time></trkpt><trkpt lat="51.7968271952" lon="-2.1610750817"><ele>197.21</ele><time>2015-10-28T10:25:40Z</time></trkpt><trkpt lat="51.7968510836" lon="-2.1611407120"><ele>196.25</ele><time>2015-10-28T10:26:01Z</time></trkpt><trkpt lat="51.7968275305" lon="-2.1611678693"><ele>196.25</ele><time>2015-10-28T10:26:20Z</time></trkpt><trkpt lat="51.7968500778" lon="-2.1612148918"><ele>194.80</ele><time>2015-10-28T10:26:39Z</time></trkpt><trkpt lat="51.7969402671" lon="-2.1612781752"><ele>192.40</ele><time>2015-10-28T10:26:59Z</time></trkpt><trkpt lat="51.7969786562" lon="-2.1613973659"><ele>191.92</ele><time>2015-10-28T10:27:18Z</time></trkpt><trkpt lat="51.7970095016" lon="-2.1614561230"><ele>189.04</ele><time>2015-10-28T10:27:40Z</time></trkpt><trkpt lat="51.7970079929" lon="-2.1614921652"><ele>188.56</ele><time>2015-10-28T10:27:42Z</time></trkpt><trkpt lat="51.7969435360" lon="-2.1618031338"><ele>189.52</ele><time>2015-10-28T10:27:57Z</time></trkpt><trkpt lat="51.7969250958" lon="-2.1619246714"><ele>190.00</ele><time>2015-10-28T10:28:13Z</time></trkpt><trkpt lat="51.7969643231" lon="-2.1621643938"><ele>190.96</ele><time>2015-10-28T10:28:29Z</time></trkpt><trkpt lat="51.7969834339" lon="-2.1622588579"><ele>192.40</ele><time>2015-10-28T10:28:47Z</time></trkpt><trkpt lat="51.7970287800" lon="-2.1623324510"><ele>192.40</ele><time>2015-10-28T10:29:04Z</time></trkpt><trkpt lat="51.7970463820" lon="-2.1623697504"><ele>192.40</ele><time>2015-10-28T10:29:24Z</time></trkpt><trkpt lat="51.7970682587" lon="-2.1623798925"><ele>193.36</ele><time>2015-10-28T10:29:48Z</time></trkpt><trkpt lat="51.7971156165" lon="-2.1624099836"><ele>192.88</ele><time>2015-10-28T10:30:12Z</time></trkpt><trkpt lat="51.7971339729" lon="-2.1624239814"><ele>193.84</ele><time>2015-10-28T10:30:33Z</time></trkpt><trkpt lat="51.7971532512" lon="-2.1624452714"><ele>193.36</ele><time>2015-10-28T10:30:55Z</time></trkpt><trkpt lat="51.7971539218" lon="-2.1624480374"><ele>192.88</ele><time>2015-10-28T10:31:21Z</time></trkpt><trkpt lat="51.7971534189" lon="-2.1624601912"><ele>192.88</ele><time>2015-10-28T10:31:47Z</time></trkpt><trkpt lat="51.7971554305" lon="-2.1624702495"><ele>192.88</ele><time>2015-10-28T10:32:10Z</time></trkpt><trkpt lat="51.7971766368" lon="-2.1625331137"><ele>194.80</ele><time>2015-10-28T10:32:26Z</time></trkpt><trkpt lat="51.7972175404" lon="-2.1627188567"><ele>195.77</ele><time>2015-10-28T10:32:43Z</time></trkpt><trkpt lat="51.7972284369" lon="-2.1628200263"><ele>196.73</ele><time>2015-10-28T10:32:58Z</time></trkpt><trkpt lat="51.7972601205" lon="-2.1629040968"><ele>198.17</ele><time>2015-10-28T10:33:15Z</time></trkpt><trkpt lat="51.7972973362" lon="-2.1628374606"><ele>199.13</ele><time>2015-10-28T10:33:33Z</time></trkpt><trkpt lat="51.7973966617" lon="-2.1625761129"><ele>201.05</ele><time>2015-10-28T10:33:52Z</time></trkpt><trkpt lat="51.7974154372" lon="-2.1624508873"><ele>203.46</ele><time>2015-10-28T10:34:13Z</time></trkpt><trkpt lat="51.7974490486" lon="-2.1623602789"><ele>203.94</ele><time>2015-10-28T10:34:28Z</time></trkpt><trkpt lat="51.7975212168" lon="-2.1622239053"><ele>205.38</ele><time>2015-10-28T10:34:42Z</time></trkpt><trkpt lat="51.7975720111" lon="-2.1620053891"><ele>207.30</ele><time>2015-10-28T10:34:57Z</time></trkpt><trkpt lat="51.7975936364" lon="-2.1617770661"><ele>209.22</ele><time>2015-10-28T10:35:16Z</time></trkpt><trkpt lat="51.7976228055" lon="-2.1615789179"><ele>210.67</ele><time>2015-10-28T10:35:29Z</time></trkpt><trkpt lat="51.7976236437" lon="-2.1614517644"><ele>211.63</ele><time>2015-10-28T10:35:43Z</time></trkpt><trkpt lat="51.7976218835" lon="-2.1613351721"><ele>213.07</ele><time>2015-10-28T10:35:56Z</time></trkpt><trkpt lat="51.7976223025" lon="-2.1612696256"><ele>214.99</ele><time>2015-10-28T10:36:08Z</time></trkpt><trkpt lat="51.7976301815" lon="-2.1611877345"><ele>215.47</ele><time>2015-10-28T10:36:26Z</time></trkpt><trkpt lat="51.7976345401" lon="-2.1611506026"><ele>216.91</ele><time>2015-10-28T10:36:41Z</time></trkpt><trkpt lat="51.7976399884" lon="-2.1610952821"><ele>217.88</ele><time>2015-10-28T10:36:53Z</time></trkpt><trkpt lat="51.7976360489" lon="-2.1610443201"><ele>217.88</ele><time>2015-10-28T10:37:07Z</time></trkpt><trkpt lat="51.7976239789" lon="-2.1609978005"><ele>217.40</ele><time>2015-10-28T10:37:29Z</time></trkpt><trkpt lat="51.7976171896" lon="-2.1609858144"><ele>217.40</ele><time>2015-10-28T10:37:40Z</time></trkpt><trkpt lat="51.7976235598" lon="-2.1609388757"><ele>217.88</ele><time>2015-10-28T10:37:44Z</time></trkpt><trkpt lat="51.7976373900" lon="-2.1608779393"><ele>218.36</ele><time>2015-10-28T10:37:48Z</time></trkpt><trkpt lat="51.7976512201" lon="-2.1608212776"><ele>218.84</ele><time>2015-10-28T10:37:52Z</time></trkpt><trkpt lat="51.7976673972" lon="-2.1606731694"><ele>220.76</ele><time>2015-10-28T10:38:03Z</time></trkpt><trkpt lat="51.7976831552" lon="-2.1606038511"><ele>221.72</ele><time>2015-10-28T10:38:09Z</time></trkpt><trkpt lat="51.7976881005" lon="-2.1605405677"><ele>222.20</ele><time>2015-10-28T10:38:13Z</time></trkpt><trkpt lat="51.7976897769" lon="-2.1604367159"><ele>222.68</ele><time>2015-10-28T10:38:18Z</time></trkpt><trkpt lat="51.7976850830" lon="-2.1603961475"><ele>224.12</ele><time>2015-10-28T10:38:22Z</time></trkpt><trkpt lat="51.7976928782" lon="-2.1602062136"><ele>225.09</ele><time>2015-10-28T10:38:32Z</time></trkpt><trkpt lat="51.7976815626" lon="-2.1601206344"><ele>226.05</ele><time>2015-10-28T10:38:41Z</time></trkpt><trkpt lat="51.7977032717" lon="-2.1600873582"><ele>226.05</ele><time>2015-10-28T10:38:52Z</time></trkpt><trkpt lat="51.7976985779" lon="-2.1600763779"><ele>225.57</ele><time>2015-10-28T10:39:04Z</time></trkpt><trkpt lat="51.7976798862" lon="-2.1600403357"><ele>226.53</ele><time>2015-10-28T10:39:14Z</time></trkpt><trkpt lat="51.7976403236" lon="-2.1600065567"><ele>227.49</ele><time>2015-10-28T10:39:19Z</time></trkpt><trkpt lat="51.7976153456" lon="-2.1599352267"><ele>228.93</ele><time>2015-10-28T10:39:26Z</time></trkpt><trkpt lat="51.7975837458" lon="-2.1598630585"><ele>229.41</ele><time>2015-10-28T10:39:31Z</time></trkpt><trkpt lat="51.7975709215" lon="-2.1597934049"><ele>230.37</ele><time>2015-10-28T10:39:36Z</time></trkpt><trkpt lat="51.7975602765" lon="-2.1597509924"><ele>230.85</ele><time>2015-10-28T10:39:40Z</time></trkpt><trkpt lat="51.7975346278" lon="-2.1596364118"><ele>231.33</ele><time>2015-10-28T10:39:46Z</time></trkpt><trkpt lat="51.7975053750" lon="-2.1594556142"><ele>232.78</ele><time>2015-10-28T10:39:56Z</time></trkpt><trkpt lat="51.7974959034" lon="-2.1593029797"><ele>234.70</ele><time>2015-10-28T10:40:07Z</time></trkpt><trkpt lat="51.7974789720" lon="-2.1591511834"><ele>235.66</ele><time>2015-10-28T10:40:17Z</time></trkpt><trkpt lat="51.7974919640" lon="-2.1589948609"><ele>237.10</ele><time>2015-10-28T10:40:26Z</time></trkpt><trkpt lat="51.7974764574" lon="-2.1588848066"><ele>238.06</ele><time>2015-10-28T10:40:35Z</time></trkpt><trkpt lat="51.7974731885" lon="-2.1588744968"><ele>238.06</ele><time>2015-10-28T10:40:36Z</time></trkpt><trkpt lat="51.7974767927" lon="-2.1587905940"><ele>238.54</ele><time>2015-10-28T10:40:43Z</time></trkpt><trkpt lat="51.7974975798" lon="-2.1586733311"><ele>239.51</ele><time>2015-10-28T10:40:54Z</time></trkpt><trkpt lat="51.7975008488" lon="-2.1585879195"><ele>240.95</ele><time>2015-10-28T10:41:02Z</time></trkpt><trkpt lat="51.7974989209" lon="-2.1585686412"><ele>240.95</ele><time>2015-10-28T10:41:18Z</time></trkpt><trkpt lat="51.7974797264" lon="-2.1585414838"><ele>240.47</ele><time>2015-10-28T10:41:21Z</time></trkpt><trkpt lat="51.7974274233" lon="-2.1584132407"><ele>239.99</ele><time>2015-10-28T10:41:31Z</time></trkpt><trkpt lat="51.7973865196" lon="-2.1582866739"><ele>239.99</ele><time>2015-10-28T10:41:46Z</time></trkpt><trkpt lat="51.7972944863" lon="-2.1582466085"><ele>239.02</ele><time>2015-10-28T10:41:59Z</time></trkpt><trkpt lat="51.7972180434" lon="-2.1581572574"><ele>238.06</ele><time>2015-10-28T10:42:15Z</time></trkpt><trkpt lat="51.7971595377" lon="-2.1581011824"><ele>237.58</ele><time>2015-10-28T10:42:28Z</time></trkpt><trkpt lat="51.7970768083" lon="-2.1580457781"><ele>236.62</ele><time>2015-10-28T10:42:44Z</time></trkpt><trkpt lat="51.7969955876" lon="-2.1579871047"><ele>234.70</ele><time>2015-10-28T10:43:00Z</time></trkpt><trkpt lat="51.7968991119" lon="-2.1578869410"><ele>233.26</ele><time>2015-10-28T10:43:15Z</time></trkpt><trkpt lat="51.7968271952" lon="-2.1578611247"><ele>231.33</ele><time>2015-10-28T10:43:30Z</time></trkpt><trkpt lat="51.7967076693" lon="-2.1578525752"><ele>228.93</ele><time>2015-10-28T10:43:44Z</time></trkpt><trkpt lat="51.7966128699" lon="-2.1578560956"><ele>227.01</ele><time>2015-10-28T10:43:59Z</time></trkpt><trkpt lat="51.7965661827" lon="-2.1578347217"><ele>225.57</ele><time>2015-10-28T10:44:17Z</time></trkpt><trkpt lat="51.7964873090" lon="-2.1578032058"><ele>224.61</ele><time>2015-10-28T10:44:31Z</time></trkpt><trkpt lat="51.7964285519" lon="-2.1577883698"><ele>223.64</ele><time>2015-10-28T10:44:42Z</time></trkpt><trkpt lat="51.7963614967" lon="-2.1577435266"><ele>222.68</ele><time>2015-10-28T10:44:57Z</time></trkpt><trkpt lat="51.7962465808" lon="-2.1576562710"><ele>220.76</ele><time>2015-10-28T10:45:11Z</time></trkpt><trkpt lat="51.7961831298" lon="-2.1576200612"><ele>220.76</ele><time>2015-10-28T10:45:17Z</time></trkpt><trkpt lat="51.7960703094" lon="-2.1575537603"><ele>218.84</ele><time>2015-10-28T10:45:27Z</time></trkpt><trkpt lat="51.7960403860" lon="-2.1575286146"><ele>217.88</ele><time>2015-10-28T10:45:42Z</time></trkpt><trkpt lat="51.7960160784" lon="-2.1575166285"><ele>216.43</ele><time>2015-10-28T10:46:02Z</time></trkpt><trkpt lat="51.7959960457" lon="-2.1575020440"><ele>214.51</ele><time>2015-10-28T10:46:17Z</time></trkpt><trkpt lat="51.7959734146" lon="-2.1574706119"><ele>213.55</ele><time>2015-10-28T10:46:38Z</time></trkpt><trkpt lat="51.7958686408" lon="-2.1574221645"><ele>211.63</ele><time>2015-10-28T10:46:49Z</time></trkpt><trkpt lat="51.7957529705" lon="-2.1573933307"><ele>210.19</ele><time>2015-10-28T10:47:02Z</time></trkpt><trkpt lat="51.7957515456" lon="-2.1573756449"><ele>209.70</ele><time>2015-10-28T10:47:24Z</time></trkpt><trkpt lat="51.7957220413" lon="-2.1573363338"><ele>208.26</ele><time>2015-10-28T10:47:46Z</time></trkpt><trkpt lat="51.7956900224" lon="-2.1573235933"><ele>207.30</ele><time>2015-10-28T10:48:00Z</time></trkpt><trkpt lat="51.7956546508" lon="-2.1572892275"><ele>207.78</ele><time>2015-10-28T10:48:14Z</time></trkpt><trkpt lat="51.7956356239" lon="-2.1572700329"><ele>206.34</ele><time>2015-10-28T10:48:33Z</time></trkpt><trkpt lat="51.7955232225" lon="-2.1572961845"><ele>205.38</ele><time>2015-10-28T10:48:45Z</time></trkpt><trkpt lat="51.7954782955" lon="-2.1572985314"><ele>205.38</ele><time>2015-10-28T10:48:49Z</time></trkpt><trkpt lat="51.7954361346" lon="-2.1572986990"><ele>204.90</ele><time>2015-10-28T10:48:53Z</time></trkpt><trkpt lat="51.7952990904" lon="-2.1573284548"><ele>204.42</ele><time>2015-10-28T10:49:07Z</time></trkpt><trkpt lat="51.7952429317" lon="-2.1573147923"><ele>206.34</ele><time>2015-10-28T10:49:17Z</time></trkpt><trkpt lat="51.7952012736" lon="-2.1573357470"><ele>207.78</ele><time>2015-10-28T10:49:27Z</time></trkpt><trkpt lat="51.7950849328" lon="-2.1574311331"><ele>207.78</ele><time>2015-10-28T10:49:42Z</time></trkpt><trkpt lat="51.7949185520" lon="-2.1574755572"><ele>208.26</ele><time>2015-10-28T10:49:57Z</time></trkpt><trkpt lat="51.7947875429" lon="-2.1574617270"><ele>206.82</ele><time>2015-10-28T10:50:08Z</time></trkpt><trkpt lat="51.7947487347" lon="-2.1574674267"><ele>205.86</ele><time>2015-10-28T10:50:18Z</time></trkpt><trkpt lat="51.7946926598" lon="-2.1574956737"><ele>205.38</ele><time>2015-10-28T10:50:29Z</time></trkpt><trkpt lat="51.7946605571" lon="-2.1575225797"><ele>205.38</ele><time>2015-10-28T10:50:41Z</time></trkpt><trkpt lat="51.7946325615" lon="-2.1575259324"><ele>204.90</ele><time>2015-10-28T10:50:44Z</time></trkpt><trkpt lat="51.7945447192" lon="-2.1575105097"><ele>205.38</ele><time>2015-10-28T10:50:54Z</time></trkpt><trkpt lat="51.7945156340" lon="-2.1574995294"><ele>205.38</ele><time>2015-10-28T10:50:57Z</time></trkpt><trkpt lat="51.7944839504" lon="-2.1574824303"><ele>204.90</ele><time>2015-10-28T10:51:01Z</time></trkpt><trkpt lat="51.7944571283" lon="-2.1574546862"><ele>205.38</ele><time>2015-10-28T10:51:05Z</time></trkpt><trkpt lat="51.7943577189" lon="-2.1574062388"><ele>205.86</ele><time>2015-10-28T10:51:16Z</time></trkpt><trkpt lat="51.7943519354" lon="-2.1574029699"><ele>205.38</ele><time>2015-10-28T10:51:17Z</time></trkpt><trkpt lat="51.7943222634" lon="-2.1573825181"><ele>204.90</ele><time>2015-10-28T10:51:21Z</time></trkpt><trkpt lat="51.7942374386" lon="-2.1573529299"><ele>204.90</ele><time>2015-10-28T10:51:31Z</time></trkpt><trkpt lat="51.7942228541" lon="-2.1573453862"><ele>204.90</ele><time>2015-10-28T10:51:33Z</time></trkpt><trkpt lat="51.7941873148" lon="-2.1573239285"><ele>203.94</ele><time>2015-10-28T10:51:38Z</time></trkpt><trkpt lat="51.7941278871" lon="-2.1572718769"><ele>203.94</ele><time>2015-10-28T10:51:44Z</time></trkpt><trkpt lat="51.7940909229" lon="-2.1572464798"><ele>203.46</ele><time>2015-10-28T10:51:48Z</time></trkpt><trkpt lat="51.7940388713" lon="-2.1571540274"><ele>202.98</ele><time>2015-10-28T10:51:58Z</time></trkpt><trkpt lat="51.7939771805" lon="-2.1570394468"><ele>203.46</ele><time>2015-10-28T10:52:07Z</time></trkpt><trkpt lat="51.7939571477" lon="-2.1569255367"><ele>202.98</ele><time>2015-10-28T10:52:14Z</time></trkpt><trkpt lat="51.7939276434" lon="-2.1568487585"><ele>202.49</ele><time>2015-10-28T10:52:22Z</time></trkpt><trkpt lat="51.7939107120" lon="-2.1567674540"><ele>202.98</ele><time>2015-10-28T10:52:30Z</time></trkpt><trkpt lat="51.7939175852" lon="-2.1567542106"><ele>206.34</ele><time>2015-10-28T10:52:33Z</time></trkpt><trkpt lat="51.7939177528" lon="-2.1567532886"><ele>202.49</ele><time>2015-10-28T10:52:34Z</time></trkpt><trkpt lat="51.7939289846" lon="-2.1567402966"><ele>202.49</ele><time>2015-10-28T10:52:44Z</time></trkpt><trkpt lat="51.7939374503" lon="-2.1567276400"><ele>202.98</ele><time>2015-10-28T10:53:00Z</time></trkpt><trkpt lat="51.7939616740" lon="-2.1566906758"><ele>202.98</ele><time>2015-10-28T10:53:16Z</time></trkpt><trkpt lat="51.7939602491" lon="-2.1566753369"><ele>199.13</ele><time>2015-10-28T10:53:17Z</time></trkpt><trkpt lat="51.7939579859" lon="-2.1566693019"><ele>205.38</ele><time>2015-10-28T10:53:18Z</time></trkpt><trkpt lat="51.7940085288" lon="-2.1566233691"><ele>204.42</ele><time>2015-10-28T10:53:28Z</time></trkpt><trkpt lat="51.7940090317" lon="-2.1566169150"><ele>207.78</ele><time>2015-10-28T10:53:31Z</time></trkpt><trkpt lat="51.7939987220" lon="-2.1565680485"><ele>206.34</ele><time>2015-10-28T10:53:35Z</time></trkpt><trkpt lat="51.7940039188" lon="-2.1565087885"><ele>204.42</ele><time>2015-10-28T10:53:38Z</time></trkpt><trkpt lat="51.7940260470" lon="-2.1564406436"><ele>207.78</ele><time>2015-10-28T10:53:43Z</time></trkpt><trkpt lat="51.7940573115" lon="-2.1564211976"><ele>207.78</ele><time>2015-10-28T10:53:47Z</time></trkpt><trkpt lat="51.7941590678" lon="-2.1563701518"><ele>208.74</ele><time>2015-10-28T10:53:56Z</time></trkpt><trkpt lat="51.7942172382" lon="-2.1563523822"><ele>210.19</ele><time>2015-10-28T10:54:03Z</time></trkpt><trkpt lat="51.7942637578" lon="-2.1563224588"><ele>211.15</ele><time>2015-10-28T10:54:07Z</time></trkpt><trkpt lat="51.7942680325" lon="-2.1563178487"><ele>211.15</ele><time>2015-10-28T10:54:08Z</time></trkpt><trkpt lat="51.7943335790" lon="-2.1562688984"><ele>212.11</ele><time>2015-10-28T10:54:17Z</time></trkpt><trkpt lat="51.7943963595" lon="-2.1562315151"><ele>213.55</ele><time>2015-10-28T10:54:27Z</time></trkpt><trkpt lat="51.7944042385" lon="-2.1562310960"><ele>211.63</ele><time>2015-10-28T10:54:28Z</time></trkpt><trkpt lat="51.7944318987" lon="-2.1562261507"><ele>214.03</ele><time>2015-10-28T10:54:31Z</time></trkpt><trkpt lat="51.7944871355" lon="-2.1562034357"><ele>214.03</ele><time>2015-10-28T10:54:38Z</time></trkpt><trkpt lat="51.7945277039" lon="-2.1561917849"><ele>214.51</ele><time>2015-10-28T10:54:42Z</time></trkpt><trkpt lat="51.7945511732" lon="-2.1561781224"><ele>215.47</ele><time>2015-10-28T10:54:46Z</time></trkpt><trkpt lat="51.7946254369" lon="-2.1561336145"><ele>215.95</ele><time>2015-10-28T10:54:52Z</time></trkpt><trkpt lat="51.7946862895" lon="-2.1560989134"><ele>215.95</ele><time>2015-10-28T10:55:00Z</time></trkpt><trkpt lat="51.7947695218" lon="-2.1560655534"><ele>215.95</ele><time>2015-10-28T10:55:09Z</time></trkpt><trkpt lat="51.7948881257" lon="-2.1560145076"><ele>216.43</ele><time>2015-10-28T10:55:21Z</time></trkpt><trkpt lat="51.7949725315" lon="-2.1559615340"><ele>215.95</ele><time>2015-10-28T10:55:33Z</time></trkpt><trkpt lat="51.7949956656" lon="-2.1559421718"><ele>217.40</ele><time>2015-10-28T10:55:36Z</time></trkpt><trkpt lat="51.7950278521" lon="-2.1559103206"><ele>216.91</ele><time>2015-10-28T10:55:46Z</time></trkpt><trkpt lat="51.7950777244" lon="-2.1558285132"><ele>217.88</ele><time>2015-10-28T10:55:54Z</time></trkpt><trkpt lat="51.7950885370" lon="-2.1558145154"><ele>216.43</ele><time>2015-10-28T10:55:55Z</time></trkpt><trkpt lat="51.7951244954" lon="-2.1557847597"><ele>216.91</ele><time>2015-10-28T10:55:59Z</time></trkpt><trkpt lat="51.7951441091" lon="-2.1557689179"><ele>221.24</ele><time>2015-10-28T10:56:01Z</time></trkpt><trkpt lat="51.7951493897" lon="-2.1557654813"><ele>218.36</ele><time>2015-10-28T10:56:02Z</time></trkpt><trkpt lat="51.7952197976" lon="-2.1557215601"><ele>220.76</ele><time>2015-10-28T10:56:10Z</time></trkpt><trkpt lat="51.7952348851" lon="-2.1556993481"><ele>221.72</ele><time>2015-10-28T10:56:14Z</time></trkpt><trkpt lat="51.7952576838" lon="-2.1556688379"><ele>218.84</ele><time>2015-10-28T10:56:18Z</time></trkpt><trkpt lat="51.7952725198" lon="-2.1556636412"><ele>222.68</ele><time>2015-10-28T10:56:20Z</time></trkpt><trkpt lat="51.7952830810" lon="-2.1556594502"><ele>221.24</ele><time>2015-10-28T10:56:21Z</time></trkpt><trkpt lat="51.7952881940" lon="-2.1556610428"><ele>218.36</ele><time>2015-10-28T10:56:22Z</time></trkpt><trkpt lat="51.7952900380" lon="-2.1556586120"><ele>222.68</ele><time>2015-10-28T10:56:24Z</time></trkpt><trkpt lat="51.7952904571" lon="-2.1556582768"><ele>222.20</ele><time>2015-10-28T10:56:25Z</time></trkpt><trkpt lat="51.7952884454" lon="-2.1556354780"><ele>223.16</ele><time>2015-10-28T10:56:35Z</time></trkpt><trkpt lat="51.7953021079" lon="-2.1556366514"><ele>224.61</ele><time>2015-10-28T10:56:55Z</time></trkpt><trkpt lat="51.7953070533" lon="-2.1556437761"><ele>221.72</ele><time>2015-10-28T10:56:57Z</time></trkpt><trkpt lat="51.7953077238" lon="-2.1556438599"><ele>222.20</ele><time>2015-10-28T10:57:00Z</time></trkpt><trkpt lat="51.7953079753" lon="-2.1556439437"><ele>224.61</ele><time>2015-10-28T10:57:01Z</time></trkpt><trkpt lat="51.7953076400" lon="-2.1556388307"><ele>223.64</ele><time>2015-10-28T10:57:02Z</time></trkpt><trkpt lat="51.7952467036" lon="-2.1558349673"><ele>223.16</ele><time>2015-10-28T10:57:20Z</time></trkpt><trkpt lat="51.7952498049" lon="-2.1558618732"><ele>218.84</ele><time>2015-10-28T10:57:32Z</time></trkpt><trkpt lat="51.7952498887" lon="-2.1558624599"><ele>225.09</ele><time>2015-10-28T10:57:33Z</time></trkpt><trkpt lat="51.7952656467" lon="-2.1558741108"><ele>221.72</ele><time>2015-10-28T10:57:41Z</time></trkpt><trkpt lat="51.7952703405" lon="-2.1558630466"><ele>218.36</ele><time>2015-10-28T10:57:42Z</time></trkpt><trkpt lat="51.7952757888" lon="-2.1558497194"><ele>224.61</ele><time>2015-10-28T10:57:43Z</time></trkpt><trkpt lat="51.7953032814" lon="-2.1558078099"><ele>220.76</ele><time>2015-10-28T10:57:55Z</time></trkpt><trkpt lat="51.7952995095" lon="-2.1558022778"><ele>225.57</ele><time>2015-10-28T10:57:57Z</time></trkpt><trkpt lat="51.7952998448" lon="-2.1557984222"><ele>221.24</ele><time>2015-10-28T10:58:05Z</time></trkpt><trkpt lat="51.7952803988" lon="-2.1558213048"><ele>227.49</ele><time>2015-10-28T10:58:08Z</time></trkpt><trkpt lat="51.7952803150" lon="-2.1558218915"><ele>224.12</ele><time>2015-10-28T10:58:09Z</time></trkpt><trkpt lat="51.7952739447" lon="-2.1558330394"><ele>223.16</ele><time>2015-10-28T10:58:11Z</time></trkpt><trkpt lat="51.7953246552" lon="-2.1557620447"><ele>223.16</ele><time>2015-10-28T10:58:38Z</time></trkpt><trkpt lat="51.7953321151" lon="-2.1557495557"><ele>223.16</ele><time>2015-10-28T10:59:01Z</time></trkpt><trkpt lat="51.7952741962" lon="-2.1559803933"><ele>223.16</ele><time>2015-10-28T10:59:23Z</time></trkpt><trkpt lat="51.7952794768" lon="-2.1559789684"><ele>219.32</ele><time>2015-10-28T10:59:37Z</time></trkpt><trkpt lat="51.7952802312" lon="-2.1559789684"><ele>229.41</ele><time>2015-10-28T10:59:38Z</time></trkpt><trkpt lat="51.7952821590" lon="-2.1559775434"><ele>223.64</ele><time>2015-10-28T10:59:39Z</time></trkpt><trkpt lat="51.7953100707" lon="-2.1558692493"><ele>223.16</ele><time>2015-10-28T10:59:54Z</time></trkpt><trkpt lat="51.7952891998" lon="-2.1558565088"><ele>223.16</ele><time>2015-10-28T11:00:19Z</time></trkpt><trkpt lat="51.7952921335" lon="-2.1558406670"><ele>223.16</ele><time>2015-10-28T11:00:48Z</time></trkpt><trkpt lat="51.7953044549" lon="-2.1557819936"><ele>223.16</ele><time>2015-10-28T11:01:13Z</time></trkpt><trkpt lat="51.7952981684" lon="-2.1557681635"><ele>222.68</ele><time>2015-10-28T11:01:38Z</time></trkpt><trkpt lat="51.7953026947" lon="-2.1557559259"><ele>223.16</ele><time>2015-10-28T11:02:05Z</time></trkpt><trkpt lat="51.7953051254" lon="-2.1557376534"><ele>223.16</ele><time>2015-10-28T11:02:33Z</time></trkpt><trkpt lat="51.7953104060" lon="-2.1557710972"><ele>223.16</ele><time>2015-10-28T11:03:02Z</time></trkpt><trkpt lat="51.7953094840" lon="-2.1557899565"><ele>222.68</ele><time>2015-10-28T11:03:30Z</time></trkpt><trkpt lat="51.7953202967" lon="-2.1557711810"><ele>222.68</ele><time>2015-10-28T11:03:51Z</time></trkpt><trkpt lat="51.7953226436" lon="-2.1557638887"><ele>222.68</ele><time>2015-10-28T11:04:19Z</time></trkpt><trkpt lat="51.7953192070" lon="-2.1557392459"><ele>222.68</ele><time>2015-10-28T11:04:52Z</time></trkpt><trkpt lat="51.7953181174" lon="-2.1557289362"><ele>222.68</ele><time>2015-10-28T11:05:24Z</time></trkpt><trkpt lat="51.7953182012" lon="-2.1557410900"><ele>222.68</ele><time>2015-10-28T11:05:48Z</time></trkpt><trkpt lat="51.7953281756" lon="-2.1557779703"><ele>222.20</ele><time>2015-10-28T11:06:13Z</time></trkpt><trkpt lat="51.7953265831" lon="-2.1557912137"><ele>223.16</ele><time>2015-10-28T11:06:14Z</time></trkpt><trkpt lat="51.7953052092" lon="-2.1558274236"><ele>222.68</ele><time>2015-10-28T11:06:17Z</time></trkpt><trkpt lat="51.7951982561" lon="-2.1560611110"><ele>222.68</ele><time>2015-10-28T11:06:45Z</time></trkpt><trkpt lat="51.7952060513" lon="-2.1559917927"><ele>223.64</ele><time>2015-10-28T11:07:11Z</time></trkpt><trkpt lat="51.7952234857" lon="-2.1559971571"><ele>224.12</ele><time>2015-10-28T11:07:35Z</time></trkpt><trkpt lat="51.7951993458" lon="-2.1560335346"><ele>223.64</ele><time>2015-10-28T11:08:02Z</time></trkpt><trkpt lat="51.7952207197" lon="-2.1560202911"><ele>224.12</ele><time>2015-10-28T11:08:27Z</time></trkpt><trkpt lat="51.7952241562" lon="-2.1560074668"><ele>225.09</ele><time>2015-10-28T11:08:49Z</time></trkpt><trkpt lat="51.7952500563" lon="-2.1559694968"><ele>224.61</ele><time>2015-10-28T11:09:14Z</time></trkpt><trkpt lat="51.7952625453" lon="-2.1559431776"><ele>225.09</ele><time>2015-10-28T11:09:44Z</time></trkpt><trkpt lat="51.7952721007" lon="-2.1559201274"><ele>225.09</ele><time>2015-10-28T11:10:13Z</time></trkpt><trkpt lat="51.7952549178" lon="-2.1559265815"><ele>225.09</ele><time>2015-10-28T11:10:35Z</time></trkpt><trkpt lat="51.7952440213" lon="-2.1559373941"><ele>225.09</ele><time>2015-10-28T11:11:01Z</time></trkpt><trkpt lat="51.7952836677" lon="-2.1558486298"><ele>226.05</ele><time>2015-10-28T11:11:23Z</time></trkpt><trkpt lat="51.7953014374" lon="-2.1558166947"><ele>225.09</ele><time>2015-10-28T11:11:42Z</time></trkpt><trkpt lat="51.7952809017" lon="-2.1558182035"><ele>224.12</ele><time>2015-10-28T11:11:54Z</time></trkpt><trkpt lat="51.7953398265" lon="-2.1558147669"><ele>223.16</ele><time>2015-10-28T11:12:07Z</time></trkpt><trkpt lat="51.7953870166" lon="-2.1558715124"><ele>224.12</ele><time>2015-10-28T11:12:14Z</time></trkpt><trkpt lat="51.7954288423" lon="-2.1558854263"><ele>225.57</ele><time>2015-10-28T11:12:25Z</time></trkpt><trkpt lat="51.7954297643" lon="-2.1558853425"><ele>225.09</ele><time>2015-10-28T11:12:26Z</time></trkpt><trkpt lat="51.7954477016" lon="-2.1558881924"><ele>225.57</ele><time>2015-10-28T11:12:30Z</time></trkpt><trkpt lat="51.7954882700" lon="-2.1558037866"><ele>227.01</ele><time>2015-10-28T11:12:38Z</time></trkpt><trkpt lat="51.7955029383" lon="-2.1557734441"><ele>227.49</ele><time>2015-10-28T11:12:40Z</time></trkpt><trkpt lat="51.7955208756" lon="-2.1556825843"><ele>227.49</ele><time>2015-10-28T11:12:46Z</time></trkpt><trkpt lat="51.7955392320" lon="-2.1556435246"><ele>228.45</ele><time>2015-10-28T11:12:50Z</time></trkpt><trkpt lat="51.7955132481" lon="-2.1555744577"><ele>227.97</ele><time>2015-10-28T11:12:57Z</time></trkpt><trkpt lat="51.7955109011" lon="-2.1554891299"><ele>228.45</ele><time>2015-10-28T11:13:03Z</time></trkpt><trkpt lat="51.7955224682" lon="-2.1554234996"><ele>228.93</ele><time>2015-10-28T11:13:08Z</time></trkpt><trkpt lat="51.7955601867" lon="-2.1553831827"><ele>228.93</ele><time>2015-10-28T11:13:20Z</time></trkpt><trkpt lat="51.7955808062" lon="-2.1553870384"><ele>229.41</ele><time>2015-10-28T11:13:29Z</time></trkpt><trkpt lat="51.7955622822" lon="-2.1554042213"><ele>229.41</ele><time>2015-10-28T11:13:46Z</time></trkpt><trkpt lat="51.7955324426" lon="-2.1554143634"><ele>229.41</ele><time>2015-10-28T11:13:49Z</time></trkpt><trkpt lat="51.7954323627" lon="-2.1555293631"><ele>227.49</ele><time>2015-10-28T11:13:59Z</time></trkpt><trkpt lat="51.7954310216" lon="-2.1555268485"><ele>227.01</ele><time>2015-10-28T11:14:00Z</time></trkpt><trkpt lat="51.7953810655" lon="-2.1555376612"><ele>226.53</ele><time>2015-10-28T11:14:04Z</time></trkpt><trkpt lat="51.7953362223" lon="-2.1555343922"><ele>224.61</ele><time>2015-10-28T11:14:11Z</time></trkpt><trkpt lat="51.7953117471" lon="-2.1555802412"><ele>225.09</ele><time>2015-10-28T11:14:17Z</time></trkpt><trkpt lat="51.7953161057" lon="-2.1557464544"><ele>225.09</ele><time>2015-10-28T11:14:34Z</time></trkpt><trkpt lat="51.7953119148" lon="-2.1557523217"><ele>225.09</ele><time>2015-10-28T11:15:00Z</time></trkpt><trkpt lat="51.7952965759" lon="-2.1557949018"><ele>225.09</ele><time>2015-10-28T11:15:24Z</time></trkpt><trkpt lat="51.7953042034" lon="-2.1557926387"><ele>225.09</ele><time>2015-10-28T11:15:47Z</time></trkpt><trkpt lat="51.7953150999" lon="-2.1558094863"><ele>225.09</ele><time>2015-10-28T11:16:10Z</time></trkpt><trkpt lat="51.7953210510" lon="-2.1558098216"><ele>224.12</ele><time>2015-10-28T11:16:30Z</time></trkpt><trkpt lat="51.7952972464" lon="-2.1557730250"><ele>225.57</ele><time>2015-10-28T11:16:52Z</time></trkpt><trkpt lat="51.7953275889" lon="-2.1557275951"><ele>225.09</ele><time>2015-10-28T11:17:11Z</time></trkpt><trkpt lat="51.7953503877" lon="-2.1557753719"><ele>225.09</ele><time>2015-10-28T11:17:36Z</time></trkpt><trkpt lat="51.7953385692" lon="-2.1556967497"><ele>223.64</ele><time>2015-10-28T11:17:49Z</time></trkpt><trkpt lat="51.7952732742" lon="-2.1557801496"><ele>222.68</ele><time>2015-10-28T11:18:00Z</time></trkpt><trkpt lat="51.7952301074" lon="-2.1558151860"><ele>220.76</ele><time>2015-10-28T11:18:08Z</time></trkpt><trkpt lat="51.7951897066" lon="-2.1558576822"><ele>220.28</ele><time>2015-10-28T11:18:18Z</time></trkpt><trkpt lat="51.7951660696" lon="-2.1558612026"><ele>219.80</ele><time>2015-10-28T11:18:28Z</time></trkpt><trkpt lat="51.7951542512" lon="-2.1558874380"><ele>219.80</ele><time>2015-10-28T11:18:29Z</time></trkpt><trkpt lat="51.7950449511" lon="-2.1560010966"><ele>218.36</ele><time>2015-10-28T11:18:34Z</time></trkpt><trkpt lat="51.7950373236" lon="-2.1559988335"><ele>218.36</ele><time>2015-10-28T11:18:36Z</time></trkpt><trkpt lat="51.7950014491" lon="-2.1560115740"><ele>218.36</ele><time>2015-10-28T11:18:48Z</time></trkpt><trkpt lat="51.7949868646" lon="-2.1560316067"><ele>217.88</ele><time>2015-10-28T11:19:03Z</time></trkpt><trkpt lat="51.7949638143" lon="-2.1560669784"><ele>218.36</ele><time>2015-10-28T11:19:16Z</time></trkpt><trkpt lat="51.7949076556" lon="-2.1561430022"><ele>217.88</ele><time>2015-10-28T11:19:26Z</time></trkpt><trkpt lat="51.7948437855" lon="-2.1561806370"><ele>217.40</ele><time>2015-10-28T11:19:37Z</time></trkpt><trkpt lat="51.7948095873" lon="-2.1561728418"><ele>217.88</ele><time>2015-10-28T11:19:52Z</time></trkpt><trkpt lat="51.7947035562" lon="-2.1562525537"><ele>217.88</ele><time>2015-10-28T11:20:02Z</time></trkpt><trkpt lat="51.7946722917" lon="-2.1562636178"><ele>217.40</ele><time>2015-10-28T11:20:05Z</time></trkpt><trkpt lat="51.7945768218" lon="-2.1563124843"><ele>216.43</ele><time>2015-10-28T11:20:15Z</time></trkpt><trkpt lat="51.7945271172" lon="-2.1563326009"><ele>216.43</ele><time>2015-10-28T11:20:20Z</time></trkpt><trkpt lat="51.7944888957" lon="-2.1563361213"><ele>216.43</ele><time>2015-10-28T11:20:24Z</time></trkpt><trkpt lat="51.7944096867" lon="-2.1563499514"><ele>214.51</ele><time>2015-10-28T11:20:34Z</time></trkpt><trkpt lat="51.7943600658" lon="-2.1563422401"><ele>213.55</ele><time>2015-10-28T11:20:45Z</time></trkpt><trkpt lat="51.7943202518" lon="-2.1563727502"><ele>212.59</ele><time>2015-10-28T11:20:54Z</time></trkpt><trkpt lat="51.7942956928" lon="-2.1563960519"><ele>212.59</ele><time>2015-10-28T11:20:58Z</time></trkpt><trkpt lat="51.7942483351" lon="-2.1564365365"><ele>211.15</ele><time>2015-10-28T11:21:04Z</time></trkpt><trkpt lat="51.7942017317" lon="-2.1564733330"><ele>210.67</ele><time>2015-10-28T11:21:09Z</time></trkpt><trkpt lat="51.7941636778" lon="-2.1564895101"><ele>210.19</ele><time>2015-10-28T11:21:13Z</time></trkpt><trkpt lat="51.7941150628" lon="-2.1564988978"><ele>209.70</ele><time>2015-10-28T11:21:18Z</time></trkpt><trkpt lat="51.7940827925" lon="-2.1565038431"><ele>209.22</ele><time>2015-10-28T11:21:22Z</time></trkpt><trkpt lat="51.7940434813" lon="-2.1565104648"><ele>208.74</ele><time>2015-10-28T11:21:29Z</time></trkpt><trkpt lat="51.7940226104" lon="-2.1565885842"><ele>206.82</ele><time>2015-10-28T11:21:40Z</time></trkpt><trkpt lat="51.7940221913" lon="-2.1566065215"><ele>206.82</ele><time>2015-10-28T11:21:57Z</time></trkpt><trkpt lat="51.7940200120" lon="-2.1566391271"><ele>205.86</ele><time>2015-10-28T11:22:09Z</time></trkpt><trkpt lat="51.7940006498" lon="-2.1567169111"><ele>205.86</ele><time>2015-10-28T11:22:27Z</time></trkpt><trkpt lat="51.7939787731" lon="-2.1567566413"><ele>205.38</ele><time>2015-10-28T11:22:36Z</time></trkpt><trkpt lat="51.7939265538" lon="-2.1567424759"><ele>204.90</ele><time>2015-10-28T11:22:44Z</time></trkpt><trkpt lat="51.7939107120" lon="-2.1567206830"><ele>204.90</ele><time>2015-10-28T11:22:47Z</time></trkpt><trkpt lat="51.7938697245" lon="-2.1565873269"><ele>203.94</ele><time>2015-10-28T11:22:56Z</time></trkpt><trkpt lat="51.7938486859" lon="-2.1564869955"><ele>203.46</ele><time>2015-10-28T11:23:05Z</time></trkpt><trkpt lat="51.7938486021" lon="-2.1564713214"><ele>202.98</ele><time>2015-10-28T11:23:07Z</time></trkpt><trkpt lat="51.7938175052" lon="-2.1563496999"><ele>202.01</ele><time>2015-10-28T11:23:15Z</time></trkpt><trkpt lat="51.7937983945" lon="-2.1562160086"><ele>201.53</ele><time>2015-10-28T11:23:26Z</time></trkpt><trkpt lat="51.7937861569" lon="-2.1560798865"><ele>201.05</ele><time>2015-10-28T11:23:35Z</time></trkpt><trkpt lat="51.7937716562" lon="-2.1559508890"><ele>200.57</ele><time>2015-10-28T11:23:44Z</time></trkpt><trkpt lat="51.7937694769" lon="-2.1558353025"><ele>198.65</ele><time>2015-10-28T11:23:53Z</time></trkpt><trkpt lat="51.7937792838" lon="-2.1557088196"><ele>198.17</ele><time>2015-10-28T11:24:01Z</time></trkpt><trkpt lat="51.7937683873" lon="-2.1556599531"><ele>198.65</ele><time>2015-10-28T11:24:04Z</time></trkpt><trkpt lat="51.7937593348" lon="-2.1556128468"><ele>198.17</ele><time>2015-10-28T11:24:07Z</time></trkpt><trkpt lat="51.7937407270" lon="-2.1554897167"><ele>197.69</ele><time>2015-10-28T11:24:15Z</time></trkpt><trkpt lat="51.7937371228" lon="-2.1554392576"><ele>197.21</ele><time>2015-10-28T11:24:19Z</time></trkpt><trkpt lat="51.7937299982" lon="-2.1552997828"><ele>197.21</ele><time>2015-10-28T11:24:26Z</time></trkpt><trkpt lat="51.7937253043" lon="-2.1552652493"><ele>196.73</ele><time>2015-10-28T11:24:28Z</time></trkpt><trkpt lat="51.7937179282" lon="-2.1552319732"><ele>196.73</ele><time>2015-10-28T11:24:31Z</time></trkpt><trkpt lat="51.7937103007" lon="-2.1551812626"><ele>196.73</ele><time>2015-10-28T11:24:34Z</time></trkpt><trkpt lat="51.7937048525" lon="-2.1551484894"><ele>196.25</ele><time>2015-10-28T11:24:36Z</time></trkpt><trkpt lat="51.7937005777" lon="-2.1550804283"><ele>196.25</ele><time>2015-10-28T11:24:41Z</time></trkpt><trkpt lat="51.7936970573" lon="-2.1549932566"><ele>196.25</ele><time>2015-10-28T11:24:47Z</time></trkpt><trkpt lat="51.7936898489" lon="-2.1549332421"><ele>195.28</ele><time>2015-10-28T11:24:51Z</time></trkpt><trkpt lat="51.7936726660" lon="-2.1548302285"><ele>195.28</ele><time>2015-10-28T11:24:57Z</time></trkpt><trkpt lat="51.7936653737" lon="-2.1547742374"><ele>194.80</ele><time>2015-10-28T11:25:01Z</time></trkpt><trkpt lat="51.7936567403" lon="-2.1546839643"><ele>194.80</ele><time>2015-10-28T11:25:07Z</time></trkpt><trkpt lat="51.7936550640" lon="-2.1546254586"><ele>194.32</ele><time>2015-10-28T11:25:11Z</time></trkpt><trkpt lat="51.7936424073" lon="-2.1545456629"><ele>193.36</ele><time>2015-10-28T11:25:17Z</time></trkpt><trkpt lat="51.7936200276" lon="-2.1544406377"><ele>192.40</ele><time>2015-10-28T11:25:24Z</time></trkpt><trkpt lat="51.7936069518" lon="-2.1543911844"><ele>191.92</ele><time>2015-10-28T11:25:27Z</time></trkpt><trkpt lat="51.7936023418" lon="-2.1543730795"><ele>191.44</ele><time>2015-10-28T11:25:29Z</time></trkpt><trkpt lat="51.7935890984" lon="-2.1543205250"><ele>190.96</ele><time>2015-10-28T11:25:32Z</time></trkpt><trkpt lat="51.7935828958" lon="-2.1541866660"><ele>190.48</ele><time>2015-10-28T11:25:41Z</time></trkpt><trkpt lat="51.7935784534" lon="-2.1541439183"><ele>189.52</ele><time>2015-10-28T11:25:45Z</time></trkpt><trkpt lat="51.7935729213" lon="-2.1541015897"><ele>189.52</ele><time>2015-10-28T11:25:49Z</time></trkpt><trkpt lat="51.7935445905" lon="-2.1539587621"><ele>188.08</ele><time>2015-10-28T11:25:58Z</time></trkpt><trkpt lat="51.7935259826" lon="-2.1538818162"><ele>186.63</ele><time>2015-10-28T11:26:06Z</time></trkpt><trkpt lat="51.7934808880" lon="-2.1537991706"><ele>186.15</ele><time>2015-10-28T11:26:15Z</time></trkpt><trkpt lat="51.7934412416" lon="-2.1537243202"><ele>184.71</ele><time>2015-10-28T11:26:26Z</time></trkpt><trkpt lat="51.7934264056" lon="-2.1536937263"><ele>183.75</ele><time>2015-10-28T11:26:37Z</time></trkpt><trkpt lat="51.7934109829" lon="-2.1536348853"><ele>183.75</ele><time>2015-10-28T11:26:55Z</time></trkpt><trkpt lat="51.7933989130" lon="-2.1536277607"><ele>183.27</ele><time>2015-10-28T11:27:15Z</time></trkpt><trkpt lat="51.7933818139" lon="-2.1535730269"><ele>182.79</ele><time>2015-10-28T11:27:39Z</time></trkpt><trkpt lat="51.7933642119" lon="-2.1535165329"><ele>182.31</ele><time>2015-10-28T11:27:54Z</time></trkpt><trkpt lat="51.7933559138" lon="-2.1534742042"><ele>181.35</ele><time>2015-10-28T11:27:57Z</time></trkpt><trkpt lat="51.7933394853" lon="-2.1534194704"><ele>181.83</ele><time>2015-10-28T11:28:00Z</time></trkpt><trkpt lat="51.7933263257" lon="-2.1533739567"><ele>181.35</ele><time>2015-10-28T11:28:03Z</time></trkpt><trkpt lat="51.7933075503" lon="-2.1533387527"><ele>180.87</ele><time>2015-10-28T11:28:06Z</time></trkpt><trkpt lat="51.7933001742" lon="-2.1533208154"><ele>180.38</ele><time>2015-10-28T11:28:08Z</time></trkpt><trkpt lat="51.7932798062" lon="-2.1532753855"><ele>179.90</ele><time>2015-10-28T11:28:12Z</time></trkpt><trkpt lat="51.7932575103" lon="-2.1532317996"><ele>179.42</ele><time>2015-10-28T11:28:17Z</time></trkpt><trkpt lat="51.7932302691" lon="-2.1531570330"><ele>177.50</ele><time>2015-10-28T11:28:27Z</time></trkpt><trkpt lat="51.7932007648" lon="-2.1530437935"><ele>177.02</ele><time>2015-10-28T11:28:36Z</time></trkpt><trkpt lat="51.7931767087" lon="-2.1529443841"><ele>175.58</ele><time>2015-10-28T11:28:46Z</time></trkpt><trkpt lat="51.7931570951" lon="-2.1528461482"><ele>174.62</ele><time>2015-10-28T11:28:53Z</time></trkpt><trkpt lat="51.7931341287" lon="-2.1527236886"><ele>173.17</ele><time>2015-10-28T11:29:02Z</time></trkpt><trkpt lat="51.7931256630" lon="-2.1526833717"><ele>173.17</ele><time>2015-10-28T11:29:05Z</time></trkpt><trkpt lat="51.7931120843" lon="-2.1525860578"><ele>172.21</ele><time>2015-10-28T11:29:14Z</time></trkpt><trkpt lat="51.7931092344" lon="-2.1525135543"><ele>172.21</ele><time>2015-10-28T11:29:19Z</time></trkpt><trkpt lat="51.7931218073" lon="-2.1523952857"><ele>171.25</ele><time>2015-10-28T11:29:26Z</time></trkpt><trkpt lat="51.7931264173" lon="-2.1523301583"><ele>170.77</ele><time>2015-10-28T11:29:31Z</time></trkpt><trkpt lat="51.7931333743" lon="-2.1521959640"><ele>170.29</ele><time>2015-10-28T11:29:41Z</time></trkpt><trkpt lat="51.7931212205" lon="-2.1520864125"><ele>169.81</ele><time>2015-10-28T11:29:52Z</time></trkpt><trkpt lat="51.7931265011" lon="-2.1520476881"><ele>169.81</ele><time>2015-10-28T11:30:11Z</time></trkpt><trkpt lat="51.7931253277" lon="-2.1519953851"><ele>169.33</ele><time>2015-10-28T11:30:30Z</time></trkpt><trkpt lat="51.7931237351" lon="-2.1519350354"><ele>167.41</ele><time>2015-10-28T11:30:43Z</time></trkpt><trkpt lat="51.7931227293" lon="-2.1518020146"><ele>165.96</ele><time>2015-10-28T11:30:58Z</time></trkpt><trkpt lat="51.7931130901" lon="-2.1517653018"><ele>165.48</ele><time>2015-10-28T11:31:11Z</time></trkpt><trkpt lat="51.7930977512" lon="-2.1516412497"><ele>162.60</ele><time>2015-10-28T11:31:27Z</time></trkpt><trkpt lat="51.7930926383" lon="-2.1515849233"><ele>162.12</ele><time>2015-10-28T11:31:40Z</time></trkpt><trkpt lat="51.7930705100" lon="-2.1514980868"><ele>161.16</ele><time>2015-10-28T11:31:51Z</time></trkpt><trkpt lat="51.7930321209" lon="-2.1514519863"><ele>158.75</ele><time>2015-10-28T11:32:02Z</time></trkpt><trkpt lat="51.7930104956" lon="-2.1514247451"><ele>158.27</ele><time>2015-10-28T11:32:14Z</time></trkpt><trkpt lat="51.7929779738" lon="-2.1513769682"><ele>157.31</ele><time>2015-10-28T11:32:18Z</time></trkpt><trkpt lat="51.7928889580" lon="-2.1513339691"><ele>155.39</ele><time>2015-10-28T11:32:30Z</time></trkpt><trkpt lat="51.7928536702" lon="-2.1513456199"><ele>154.43</ele><time>2015-10-28T11:32:38Z</time></trkpt><trkpt lat="51.7927891295" lon="-2.1513246652"><ele>152.99</ele><time>2015-10-28T11:32:46Z</time></trkpt><trkpt lat="51.7927186377" lon="-2.1513323765"><ele>152.03</ele><time>2015-10-28T11:32:55Z</time></trkpt><trkpt lat="51.7926658317" lon="-2.1513155289"><ele>150.58</ele><time>2015-10-28T11:33:07Z</time></trkpt><trkpt lat="51.7926181387" lon="-2.1512549277"><ele>148.66</ele><time>2015-10-28T11:33:18Z</time></trkpt><trkpt lat="51.7925948370" lon="-2.1512340568"><ele>148.18</ele><time>2015-10-28T11:33:31Z</time></trkpt><trkpt lat="51.7925706971" lon="-2.1512172092"><ele>146.74</ele><time>2015-10-28T11:33:43Z</time></trkpt><trkpt lat="51.7925616447" lon="-2.1512182988"><ele>147.22</ele><time>2015-10-28T11:33:50Z</time></trkpt><trkpt lat="51.7925465573" lon="-2.1512125153"><ele>146.26</ele><time>2015-10-28T11:33:52Z</time></trkpt><trkpt lat="51.7925055698" lon="-2.1511889622"><ele>145.78</ele><time>2015-10-28T11:33:56Z</time></trkpt><trkpt lat="51.7924797535" lon="-2.1511478908"><ele>144.82</ele><time>2015-10-28T11:34:02Z</time></trkpt><trkpt lat="51.7924454715" lon="-2.1510782372"><ele>142.89</ele><time>2015-10-28T11:34:09Z</time></trkpt><trkpt lat="51.7923847027" lon="-2.1509572864"><ele>141.45</ele><time>2015-10-28T11:34:20Z</time></trkpt><trkpt lat="51.7923427094" lon="-2.1508897282"><ele>139.05</ele><time>2015-10-28T11:34:31Z</time></trkpt><trkpt lat="51.7923295498" lon="-2.1508315578"><ele>138.57</ele><time>2015-10-28T11:34:43Z</time></trkpt><trkpt lat="51.7923163064" lon="-2.1508251876"><ele>138.09</ele><time>2015-10-28T11:34:57Z</time></trkpt><trkpt lat="51.7923043203" lon="-2.1507734712"><ele>138.57</ele><time>2015-10-28T11:35:08Z</time></trkpt><trkpt lat="51.7922968604" lon="-2.1507360041"><ele>138.57</ele><time>2015-10-28T11:35:27Z</time></trkpt><trkpt lat="51.7922803480" lon="-2.1506048273"><ele>138.09</ele><time>2015-10-28T11:35:44Z</time></trkpt><trkpt lat="51.7922836170" lon="-2.1505233552"><ele>138.09</ele><time>2015-10-28T11:36:04Z</time></trkpt><trkpt lat="51.7922812700" lon="-2.1504652686"><ele>138.09</ele><time>2015-10-28T11:36:18Z</time></trkpt><trkpt lat="51.7922843713" lon="-2.1504170727"><ele>138.57</ele><time>2015-10-28T11:36:32Z</time></trkpt><trkpt lat="51.7922784202" lon="-2.1503815334"><ele>139.05</ele><time>2015-10-28T11:36:46Z</time></trkpt><trkpt lat="51.7922890652" lon="-2.1502400469"><ele>139.53</ele><time>2015-10-28T11:36:56Z</time></trkpt><trkpt lat="51.7923061643" lon="-2.1501500253"><ele>141.93</ele><time>2015-10-28T11:37:05Z</time></trkpt><trkpt lat="51.7923239339" lon="-2.1500364505"><ele>142.41</ele><time>2015-10-28T11:37:15Z</time></trkpt><trkpt lat="51.7923246883" lon="-2.1499310900"><ele>143.37</ele><time>2015-10-28T11:37:23Z</time></trkpt><trkpt lat="51.7923276220" lon="-2.1498244721"><ele>144.34</ele><time>2015-10-28T11:37:32Z</time></trkpt><trkpt lat="51.7923352495" lon="-2.1497526392"><ele>145.78</ele><time>2015-10-28T11:37:41Z</time></trkpt><trkpt lat="51.7923361715" lon="-2.1497243922"><ele>145.78</ele><time>2015-10-28T11:37:58Z</time></trkpt><trkpt lat="51.7923476547" lon="-2.1497430839"><ele>146.26</ele><time>2015-10-28T11:38:20Z</time></trkpt><trkpt lat="51.7923436314" lon="-2.1496908646"><ele>147.22</ele><time>2015-10-28T11:38:32Z</time></trkpt><trkpt lat="51.7923596408" lon="-2.1495549101"><ele>148.66</ele><time>2015-10-28T11:38:42Z</time></trkpt><trkpt lat="51.7923656758" lon="-2.1494480409"><ele>150.10</ele><time>2015-10-28T11:38:50Z</time></trkpt><trkpt lat="51.7923769914" lon="-2.1493525710"><ele>150.10</ele><time>2015-10-28T11:38:59Z</time></trkpt><trkpt lat="51.7923878878" lon="-2.1492980886"><ele>150.58</ele><time>2015-10-28T11:39:09Z</time></trkpt><trkpt lat="51.7923905700" lon="-2.1492949873"><ele>151.06</ele><time>2015-10-28T11:39:22Z</time></trkpt><trkpt lat="51.7923966888" lon="-2.1492321230"><ele>152.03</ele><time>2015-10-28T11:39:33Z</time></trkpt><trkpt lat="51.7924066633" lon="-2.1491892915"><ele>152.03</ele><time>2015-10-28T11:39:43Z</time></trkpt><trkpt lat="51.7923943419" lon="-2.1491696779"><ele>152.03</ele><time>2015-10-28T11:39:57Z</time></trkpt><trkpt lat="51.7923919950" lon="-2.1491469629"><ele>152.03</ele><time>2015-10-28T11:40:20Z</time></trkpt><trkpt lat="51.7923852894" lon="-2.1491419338"><ele>152.03</ele><time>2015-10-28T11:40:46Z</time></trkpt><trkpt lat="51.7923890613" lon="-2.1490663290"><ele>153.47</ele><time>2015-10-28T11:40:59Z</time></trkpt><trkpt lat="51.7924065795" lon="-2.1489477251"><ele>154.91</ele><time>2015-10-28T11:41:08Z</time></trkpt><trkpt lat="51.7924282048" lon="-2.1488270257"><ele>156.35</ele><time>2015-10-28T11:41:16Z</time></trkpt><trkpt lat="51.7924527638" lon="-2.1487069130"><ele>158.27</ele><time>2015-10-28T11:41:26Z</time></trkpt><trkpt lat="51.7924595531" lon="-2.1485995408"><ele>159.72</ele><time>2015-10-28T11:41:35Z</time></trkpt><trkpt lat="51.7924274504" lon="-2.1485256962"><ele>160.68</ele><time>2015-10-28T11:41:45Z</time></trkpt><trkpt lat="51.7924084235" lon="-2.1484747343"><ele>161.16</ele><time>2015-10-28T11:41:57Z</time></trkpt><trkpt lat="51.7923923302" lon="-2.1484617423"><ele>161.64</ele><time>2015-10-28T11:42:11Z</time></trkpt><trkpt lat="51.7923915759" lon="-2.1484549530"><ele>161.64</ele><time>2015-10-28T11:42:12Z</time></trkpt><trkpt lat="51.7923511751" lon="-2.1484042425"><ele>162.60</ele><time>2015-10-28T11:42:25Z</time></trkpt><trkpt lat="51.7923256103" lon="-2.1483798511"><ele>163.08</ele><time>2015-10-28T11:42:30Z</time></trkpt><trkpt lat="51.7922609858" lon="-2.1483033244"><ele>164.04</ele><time>2015-10-28T11:42:40Z</time></trkpt><trkpt lat="51.7922034021" lon="-2.1482309885"><ele>164.52</ele><time>2015-10-28T11:42:50Z</time></trkpt><trkpt lat="51.7921655998" lon="-2.1481658611"><ele>165.00</ele><time>2015-10-28T11:42:58Z</time></trkpt><trkpt lat="51.7921686172" lon="-2.1481077746"><ele>165.00</ele><time>2015-10-28T11:43:09Z</time></trkpt><trkpt lat="51.7921329103" lon="-2.1480817907"><ele>165.48</ele><time>2015-10-28T11:43:28Z</time></trkpt><trkpt lat="51.7920981254" lon="-2.1480326727"><ele>165.00</ele><time>2015-10-28T11:43:32Z</time></trkpt><trkpt lat="51.7920870613" lon="-2.1480174176"><ele>168.37</ele><time>2015-10-28T11:43:35Z</time></trkpt><trkpt lat="51.7920651007" lon="-2.1479838900"><ele>165.00</ele><time>2015-10-28T11:43:37Z</time></trkpt><trkpt lat="51.7920516059" lon="-2.1479722392"><ele>167.41</ele><time>2015-10-28T11:43:39Z</time></trkpt><trkpt lat="51.7920472473" lon="-2.1479667909"><ele>166.45</ele><time>2015-10-28T11:43:41Z</time></trkpt><trkpt lat="51.7920065951" lon="-2.1479233727"><ele>168.85</ele><time>2015-10-28T11:43:46Z</time></trkpt><trkpt lat="51.7919700500" lon="-2.1478869952"><ele>168.37</ele><time>2015-10-28T11:43:50Z</time></trkpt><trkpt lat="51.7919406295" lon="-2.1478651185"><ele>168.37</ele><time>2015-10-28T11:43:54Z</time></trkpt><trkpt lat="51.7918915953" lon="-2.1478269808"><ele>168.85</ele><time>2015-10-28T11:44:00Z</time></trkpt><trkpt lat="51.7918582354" lon="-2.1477782819"><ele>169.33</ele><time>2015-10-28T11:44:05Z</time></trkpt><trkpt lat="51.7918342631" lon="-2.1477426589"><ele>170.29</ele><time>2015-10-28T11:44:10Z</time></trkpt><trkpt lat="51.7917905934" lon="-2.1476892661"><ele>170.29</ele><time>2015-10-28T11:44:20Z</time></trkpt><trkpt lat="51.7917787749" lon="-2.1476736758"><ele>171.25</ele><time>2015-10-28T11:44:27Z</time></trkpt><trkpt lat="51.7917392962" lon="-2.1476007532"><ele>171.25</ele><time>2015-10-28T11:44:34Z</time></trkpt><trkpt lat="51.7917014100" lon="-2.1475603525"><ele>169.81</ele><time>2015-10-28T11:44:39Z</time></trkpt><trkpt lat="51.7916745879" lon="-2.1475421637"><ele>171.25</ele><time>2015-10-28T11:44:42Z</time></trkpt><trkpt lat="51.7916509509" lon="-2.1474969853"><ele>171.73</ele><time>2015-10-28T11:44:57Z</time></trkpt><trkpt lat="51.7915839795" lon="-2.1473800577"><ele>172.21</ele><time>2015-10-28T11:45:10Z</time></trkpt><trkpt lat="51.7915023398" lon="-2.1472575143"><ele>173.17</ele><time>2015-10-28T11:45:28Z</time></trkpt><trkpt lat="51.7914564908" lon="-2.1470519900"><ele>173.66</ele><time>2015-10-28T11:45:35Z</time></trkpt><trkpt lat="51.7913624458" lon="-2.1468579490"><ele>172.69</ele><time>2015-10-28T11:45:48Z</time></trkpt><trkpt lat="51.7912550736" lon="-2.1466578729"><ele>173.17</ele><time>2015-10-28T11:46:05Z</time></trkpt><trkpt lat="51.7911803070" lon="-2.1465716232"><ele>173.66</ele><time>2015-10-28T11:46:20Z</time></trkpt><trkpt lat="51.7911288422" lon="-2.1464862116"><ele>173.66</ele><time>2015-10-28T11:46:30Z</time></trkpt><trkpt lat="51.7910668999" lon="-2.1464179829"><ele>174.62</ele><time>2015-10-28T11:46:36Z</time></trkpt><trkpt lat="51.7910088133" lon="-2.1463706251"><ele>174.62</ele><time>2015-10-28T11:46:45Z</time></trkpt><trkpt lat="51.7909428477" lon="-2.1462761611"><ele>171.25</ele><time>2015-10-28T11:46:55Z</time></trkpt><trkpt lat="51.7909274250" lon="-2.1462554578"><ele>176.06</ele><time>2015-10-28T11:46:56Z</time></trkpt><trkpt lat="51.7908591963" lon="-2.1461318247"><ele>176.54</ele><time>2015-10-28T11:47:11Z</time></trkpt><trkpt lat="51.7907851841" lon="-2.1461141389"><ele>178.94</ele><time>2015-10-28T11:47:24Z</time></trkpt><trkpt lat="51.7907651514" lon="-2.1461210120"><ele>179.42</ele><time>2015-10-28T11:47:28Z</time></trkpt><trkpt lat="51.7907448672" lon="-2.1461136360"><ele>179.42</ele><time>2015-10-28T11:47:30Z</time></trkpt><trkpt lat="51.7907206435" lon="-2.1461076010"><ele>176.54</ele><time>2015-10-28T11:47:32Z</time></trkpt><trkpt lat="51.7907122616" lon="-2.1461088583"><ele>179.90</ele><time>2015-10-28T11:47:33Z</time></trkpt><trkpt lat="51.7906960007" lon="-2.1461126301"><ele>176.54</ele><time>2015-10-28T11:47:35Z</time></trkpt><trkpt lat="51.7906910554" lon="-2.1461001411"><ele>179.90</ele><time>2015-10-28T11:47:36Z</time></trkpt><trkpt lat="51.7906792369" lon="-2.1460967883"><ele>180.87</ele><time>2015-10-28T11:47:37Z</time></trkpt><trkpt lat="51.7906447873" lon="-2.1461030748"><ele>181.35</ele><time>2015-10-28T11:47:41Z</time></trkpt><trkpt lat="51.7906295322" lon="-2.1460995544"><ele>180.87</ele><time>2015-10-28T11:47:44Z</time></trkpt><trkpt lat="51.7905300390" lon="-2.1461471636"><ele>181.83</ele><time>2015-10-28T11:47:57Z</time></trkpt><trkpt lat="51.7905248422" lon="-2.1461632568"><ele>181.35</ele><time>2015-10-28T11:48:00Z</time></trkpt><trkpt lat="51.7904862016" lon="-2.1462226007"><ele>181.35</ele><time>2015-10-28T11:48:13Z</time></trkpt><trkpt lat="51.7904660851" lon="-2.1462717187"><ele>181.35</ele><time>2015-10-28T11:48:16Z</time></trkpt><trkpt lat="51.7903728783" lon="-2.1463425457"><ele>180.38</ele><time>2015-10-28T11:48:29Z</time></trkpt><trkpt lat="51.7903622333" lon="-2.1463283803"><ele>180.38</ele><time>2015-10-28T11:48:46Z</time></trkpt><trkpt lat="51.7902780790" lon="-2.1463212557"><ele>180.38</ele><time>2015-10-28T11:49:01Z</time></trkpt><trkpt lat="51.7902522627" lon="-2.1463563759"><ele>179.90</ele><time>2015-10-28T11:49:19Z</time></trkpt><trkpt lat="51.7901071720" lon="-2.1463988721"><ele>180.87</ele><time>2015-10-28T11:49:36Z</time></trkpt><trkpt lat="51.7901109438" lon="-2.1464303881"><ele>180.38</ele><time>2015-10-28T11:49:54Z</time></trkpt><trkpt lat="51.7899767496" lon="-2.1464049071"><ele>180.87</ele><time>2015-10-28T11:50:09Z</time></trkpt><trkpt lat="51.7898426391" lon="-2.1464762371"><ele>179.42</ele><time>2015-10-28T11:50:20Z</time></trkpt><trkpt lat="51.7898061778" lon="-2.1465448849"><ele>178.94</ele><time>2015-10-28T11:50:24Z</time></trkpt><trkpt lat="51.7897379491" lon="-2.1466303803"><ele>177.98</ele><time>2015-10-28T11:50:29Z</time></trkpt><trkpt lat="51.7896338459" lon="-2.1467756387"><ele>177.02</ele><time>2015-10-28T11:50:48Z</time></trkpt><trkpt lat="51.7896289006" lon="-2.1467968449"><ele>176.54</ele><time>2015-10-28T11:50:50Z</time></trkpt><trkpt lat="51.7894462589" lon="-2.1469959989"><ele>175.10</ele><time>2015-10-28T11:51:07Z</time></trkpt><trkpt lat="51.7893671338" lon="-2.1471136808"><ele>172.21</ele><time>2015-10-28T11:51:23Z</time></trkpt><trkpt lat="51.7893543094" lon="-2.1471643075"><ele>172.69</ele><time>2015-10-28T11:51:38Z</time></trkpt><trkpt lat="51.7892585043" lon="-2.1474710852"><ele>176.06</ele><time>2015-10-28T11:51:51Z</time></trkpt><trkpt lat="51.7892459314" lon="-2.1475435048"><ele>170.77</ele><time>2015-10-28T11:51:55Z</time></trkpt><trkpt lat="51.7892425787" lon="-2.1475650463"><ele>174.14</ele><time>2015-10-28T11:51:56Z</time></trkpt><trkpt lat="51.7892250605" lon="-2.1477164235"><ele>175.10</ele><time>2015-10-28T11:52:09Z</time></trkpt><trkpt lat="51.7892384715" lon="-2.1477969736"><ele>178.94</ele><time>2015-10-28T11:52:21Z</time></trkpt><trkpt lat="51.7892330233" lon="-2.1478410624"><ele>176.54</ele><time>2015-10-28T11:52:23Z</time></trkpt><trkpt lat="51.7892321013" lon="-2.1478706505"><ele>172.69</ele><time>2015-10-28T11:52:25Z</time></trkpt><trkpt lat="51.7892302573" lon="-2.1478846483"><ele>176.54</ele><time>2015-10-28T11:52:26Z</time></trkpt><trkpt lat="51.7892274912" lon="-2.1479059383"><ele>178.94</ele><time>2015-10-28T11:52:28Z</time></trkpt><trkpt lat="51.7892277427" lon="-2.1479211934"><ele>175.10</ele><time>2015-10-28T11:52:29Z</time></trkpt><trkpt lat="51.7892274912" lon="-2.1479330119"><ele>177.50</ele><time>2015-10-28T11:52:30Z</time></trkpt><trkpt lat="51.7892340291" lon="-2.1479946189"><ele>180.87</ele><time>2015-10-28T11:52:35Z</time></trkpt><trkpt lat="51.7892387230" lon="-2.1480219439"><ele>175.58</ele><time>2015-10-28T11:52:36Z</time></trkpt><trkpt lat="51.7892443389" lon="-2.1480739955"><ele>178.94</ele><time>2015-10-28T11:52:38Z</time></trkpt><trkpt lat="51.7892236356" lon="-2.1481406316"><ele>175.10</ele><time>2015-10-28T11:52:41Z</time></trkpt><trkpt lat="51.7892163433" lon="-2.1481563896"><ele>179.42</ele><time>2015-10-28T11:52:42Z</time></trkpt><trkpt lat="51.7891932093" lon="-2.1482461598"><ele>174.14</ele><time>2015-10-28T11:52:48Z</time></trkpt><trkpt lat="51.7891965620" lon="-2.1482563857"><ele>179.42</ele><time>2015-10-28T11:52:49Z</time></trkpt><trkpt lat="51.7891907785" lon="-2.1483521909"><ele>178.46</ele><time>2015-10-28T11:52:56Z</time></trkpt><trkpt lat="51.7891969811" lon="-2.1483872272"><ele>182.31</ele><time>2015-10-28T11:52:59Z</time></trkpt><trkpt lat="51.7891999986" lon="-2.1484023985"><ele>178.46</ele><time>2015-10-28T11:53:00Z</time></trkpt><trkpt lat="51.7892032675" lon="-2.1484159771"><ele>181.83</ele><time>2015-10-28T11:53:02Z</time></trkpt><trkpt lat="51.7891649622" lon="-2.1485303063"><ele>182.79</ele><time>2015-10-28T11:53:13Z</time></trkpt><trkpt lat="51.7891606875" lon="-2.1485439688"><ele>179.42</ele><time>2015-10-28T11:53:14Z</time></trkpt><trkpt lat="51.7891538981" lon="-2.1485625766"><ele>182.79</ele><time>2015-10-28T11:53:15Z</time></trkpt><trkpt lat="51.7891082168" lon="-2.1486813482"><ele>182.31</ele><time>2015-10-28T11:53:28Z</time></trkpt><trkpt lat="51.7890558299" lon="-2.1487560309"><ele>182.79</ele><time>2015-10-28T11:53:41Z</time></trkpt><trkpt lat="51.7890651338" lon="-2.1487930790"><ele>182.79</ele><time>2015-10-28T11:53:46Z</time></trkpt><trkpt lat="51.7891008407" lon="-2.1488494053"><ele>182.79</ele><time>2015-10-28T11:53:50Z</time></trkpt><trkpt lat="51.7891558260" lon="-2.1490093321"><ele>183.75</ele><time>2015-10-28T11:54:01Z</time></trkpt><trkpt lat="51.7892010044" lon="-2.1491643135"><ele>184.23</ele><time>2015-10-28T11:54:13Z</time></trkpt><trkpt lat="51.7891979031" lon="-2.1492237411"><ele>187.59</ele><time>2015-10-28T11:54:21Z</time></trkpt><trkpt lat="51.7892082129" lon="-2.1492924727"><ele>184.23</ele><time>2015-10-28T11:54:26Z</time></trkpt><trkpt lat="51.7892113980" lon="-2.1493616235"><ele>188.56</ele><time>2015-10-28T11:54:32Z</time></trkpt><trkpt lat="51.7892350350" lon="-2.1494496334"><ele>188.56</ele><time>2015-10-28T11:54:48Z</time></trkpt><trkpt lat="51.7892049439" lon="-2.1495447680"><ele>190.48</ele><time>2015-10-28T11:55:04Z</time></trkpt><trkpt lat="51.7891864199" lon="-2.1496295929"><ele>190.48</ele><time>2015-10-28T11:55:07Z</time></trkpt><trkpt lat="51.7891347874" lon="-2.1498111449"><ele>190.00</ele><time>2015-10-28T11:55:15Z</time></trkpt><trkpt lat="51.7891334463" lon="-2.1498818882"><ele>193.36</ele><time>2015-10-28T11:55:24Z</time></trkpt><trkpt lat="51.7891207896" lon="-2.1499263123"><ele>191.44</ele><time>2015-10-28T11:55:27Z</time></trkpt><trkpt lat="51.7891219631" lon="-2.1499810461"><ele>193.36</ele><time>2015-10-28T11:55:31Z</time></trkpt><trkpt lat="51.7890942190" lon="-2.1500250511"><ele>193.36</ele><time>2015-10-28T11:55:43Z</time></trkpt><trkpt lat="51.7890725099" lon="-2.1500564832"><ele>193.84</ele><time>2015-10-28T11:56:05Z</time></trkpt><trkpt lat="51.7890622001" lon="-2.1501511987"><ele>194.32</ele><time>2015-10-28T11:56:12Z</time></trkpt><trkpt lat="51.7889352981" lon="-2.1502863150"><ele>194.80</ele><time>2015-10-28T11:56:27Z</time></trkpt><trkpt lat="51.7888133414" lon="-2.1503047552"><ele>194.80</ele><time>2015-10-28T11:56:51Z</time></trkpt><trkpt lat="51.7888060492" lon="-2.1503071021"><ele>198.17</ele><time>2015-10-28T11:57:07Z</time></trkpt><trkpt lat="51.7887504771" lon="-2.1504231915"><ele>194.80</ele><time>2015-10-28T11:57:17Z</time></trkpt><trkpt lat="51.7887363955" lon="-2.1504709683"><ele>195.28</ele><time>2015-10-28T11:57:30Z</time></trkpt><trkpt lat="51.7887128424" lon="-2.1505324077"><ele>194.80</ele><time>2015-10-28T11:57:35Z</time></trkpt><trkpt lat="51.7886726931" lon="-2.1507120319"><ele>194.32</ele><time>2015-10-28T11:57:47Z</time></trkpt><trkpt lat="51.7886241619" lon="-2.1508612297"><ele>193.84</ele><time>2015-10-28T11:57:57Z</time></trkpt><trkpt lat="51.7886113375" lon="-2.1509975195"><ele>192.88</ele><time>2015-10-28T11:58:06Z</time></trkpt><trkpt lat="51.7886045482" lon="-2.1510055661"><ele>192.88</ele><time>2015-10-28T11:58:18Z</time></trkpt><trkpt lat="51.7885820847" lon="-2.1510348190"><ele>192.40</ele><time>2015-10-28T11:58:30Z</time></trkpt><trkpt lat="51.7885784805" lon="-2.1511263493"><ele>193.84</ele><time>2015-10-28T11:58:36Z</time></trkpt><trkpt lat="51.7885632254" lon="-2.1512572747"><ele>194.32</ele><time>2015-10-28T11:58:44Z</time></trkpt><trkpt lat="51.7885409296" lon="-2.1513212286"><ele>192.88</ele><time>2015-10-28T11:58:47Z</time></trkpt><trkpt lat="51.7885342240" lon="-2.1513718553"><ele>193.36</ele><time>2015-10-28T11:58:49Z</time></trkpt><trkpt lat="51.7884996906" lon="-2.1514498070"><ele>193.36</ele><time>2015-10-28T11:58:59Z</time></trkpt><trkpt lat="51.7885000259" lon="-2.1514745336"><ele>193.84</ele><time>2015-10-28T11:59:17Z</time></trkpt><trkpt lat="51.7884645704" lon="-2.1515295189"><ele>197.21</ele><time>2015-10-28T11:59:22Z</time></trkpt><trkpt lat="51.7884561047" lon="-2.1515454445"><ele>192.88</ele><time>2015-10-28T11:59:23Z</time></trkpt><trkpt lat="51.7884316295" lon="-2.1516135056"><ele>194.80</ele><time>2015-10-28T11:59:27Z</time></trkpt><trkpt lat="51.7884047236" lon="-2.1516795550"><ele>190.96</ele><time>2015-10-28T11:59:32Z</time></trkpt><trkpt lat="51.7883986887" lon="-2.1516955644"><ele>195.28</ele><time>2015-10-28T11:59:33Z</time></trkpt><trkpt lat="51.7883942463" lon="-2.1517031919"><ele>195.28</ele><time>2015-10-28T11:59:34Z</time></trkpt><trkpt lat="51.7883503251" lon="-2.1517708339"><ele>193.36</ele><time>2015-10-28T11:59:39Z</time></trkpt><trkpt lat="51.7883338127" lon="-2.1518061217"><ele>195.77</ele><time>2015-10-28T11:59:42Z</time></trkpt><trkpt lat="51.7883085832" lon="-2.1518464386"><ele>195.77</ele><time>2015-10-28T12:00:00Z</time></trkpt><trkpt lat="51.7883065715" lon="-2.1518561617"><ele>195.28</ele><time>2015-10-28T12:00:20Z</time></trkpt><trkpt lat="51.7882965971" lon="-2.1518776193"><ele>195.77</ele><time>2015-10-28T12:00:43Z</time></trkpt><trkpt lat="51.7882508319" lon="-2.1519991569"><ele>196.73</ele><time>2015-10-28T12:00:56Z</time></trkpt><trkpt lat="51.7882017139" lon="-2.1520560700"><ele>196.73</ele><time>2015-10-28T12:01:01Z</time></trkpt><trkpt lat="51.7881318927" lon="-2.1521555632"><ele>196.25</ele><time>2015-10-28T12:01:09Z</time></trkpt><trkpt lat="51.7880911566" lon="-2.1522774361"><ele>197.69</ele><time>2015-10-28T12:01:23Z</time></trkpt><trkpt lat="51.7880542763" lon="-2.1523031686"><ele>197.69</ele><time>2015-10-28T12:01:39Z</time></trkpt><trkpt lat="51.7880354170" lon="-2.1523121372"><ele>198.17</ele><time>2015-10-28T12:02:05Z</time></trkpt><trkpt lat="51.7880289629" lon="-2.1523190942"><ele>197.69</ele><time>2015-10-28T12:02:38Z</time></trkpt><trkpt lat="51.7880283762" lon="-2.1523245424"><ele>197.69</ele><time>2015-10-28T12:03:03Z</time></trkpt><trkpt lat="51.7880245205" lon="-2.1523159929"><ele>197.69</ele><time>2015-10-28T12:03:25Z</time></trkpt><trkpt lat="51.7880289629" lon="-2.1523264702"><ele>197.69</ele><time>2015-10-28T12:03:50Z</time></trkpt><trkpt lat="51.7879985366" lon="-2.1523345169"><ele>197.69</ele><time>2015-10-28T12:04:15Z</time></trkpt><trkpt lat="51.7879941780" lon="-2.1523408033"><ele>197.69</ele><time>2015-10-28T12:04:19Z</time></trkpt><trkpt lat="51.7880054936" lon="-2.1523266379"><ele>187.11</ele><time>2015-10-28T12:04:26Z</time></trkpt><trkpt lat="51.7880054936" lon="-2.1523257997"><ele>195.28</ele><time>2015-10-28T12:04:27Z</time></trkpt><trkpt lat="51.7880045716" lon="-2.1523252130"><ele>199.61</ele><time>2015-10-28T12:04:28Z</time></trkpt><trkpt lat="51.7880042363" lon="-2.1523249615"><ele>198.17</ele><time>2015-10-28T12:04:29Z</time></trkpt><trkpt lat="51.7880008835" lon="-2.1523230337"><ele>196.73</ele><time>2015-10-28T12:04:36Z</time></trkpt><trkpt lat="51.7880535219" lon="-2.1523625124"><ele>194.80</ele><time>2015-10-28T12:04:40Z</time></trkpt><trkpt lat="51.7881072499" lon="-2.1524093673"><ele>194.32</ele><time>2015-10-28T12:04:44Z</time></trkpt><trkpt lat="51.7881698627" lon="-2.1524316631"><ele>192.40</ele><time>2015-10-28T12:04:47Z</time></trkpt><trkpt lat="51.7882855330" lon="-2.1525171585"><ele>189.52</ele><time>2015-10-28T12:04:52Z</time></trkpt><trkpt lat="51.7883240897" lon="-2.1525367722"><ele>188.56</ele><time>2015-10-28T12:04:54Z</time></trkpt><trkpt lat="51.7884302884" lon="-2.1526415460"><ele>187.11</ele><time>2015-10-28T12:05:01Z</time></trkpt><trkpt lat="51.7885113414" lon="-2.1527034882"><ele>185.67</ele><time>2015-10-28T12:05:08Z</time></trkpt><trkpt lat="51.7885276023" lon="-2.1527155582"><ele>184.71</ele><time>2015-10-28T12:05:11Z</time></trkpt><trkpt lat="51.7885589506" lon="-2.1527396142"><ele>184.23</ele><time>2015-10-28T12:05:15Z</time></trkpt><trkpt lat="51.7885845155" lon="-2.1527640056"><ele>183.27</ele><time>2015-10-28T12:05:18Z</time></trkpt><trkpt lat="51.7886136007" lon="-2.1527963597"><ele>183.27</ele><time>2015-10-28T12:05:22Z</time></trkpt><trkpt lat="51.7886542529" lon="-2.1528237686"><ele>182.31</ele><time>2015-10-28T12:05:27Z</time></trkpt><trkpt lat="51.7887439393" lon="-2.1529095154"><ele>180.87</ele><time>2015-10-28T12:05:37Z</time></trkpt><trkpt lat="51.7888192926" lon="-2.1529575437"><ele>179.90</ele><time>2015-10-28T12:05:44Z</time></trkpt><trkpt lat="51.7888537422" lon="-2.1529923286"><ele>179.42</ele><time>2015-10-28T12:05:49Z</time></trkpt><trkpt lat="51.7888970766" lon="-2.1530475654"><ele>178.46</ele><time>2015-10-28T12:05:55Z</time></trkpt><trkpt lat="51.7889344599" lon="-2.1530793328"><ele>177.50</ele><time>2015-10-28T12:06:00Z</time></trkpt><trkpt lat="51.7889713403" lon="-2.1531183086"><ele>177.50</ele><time>2015-10-28T12:06:05Z</time></trkpt><trkpt lat="51.7890162673" lon="-2.1531707793"><ele>177.02</ele><time>2015-10-28T12:06:11Z</time></trkpt><trkpt lat="51.7890624516" lon="-2.1532100067"><ele>176.54</ele><time>2015-10-28T12:06:16Z</time></trkpt><trkpt lat="51.7890870944" lon="-2.1532398462"><ele>176.54</ele><time>2015-10-28T12:06:19Z</time></trkpt><trkpt lat="51.7891881801" lon="-2.1533512417"><ele>175.10</ele><time>2015-10-28T12:06:32Z</time></trkpt><trkpt lat="51.7892002501" lon="-2.1533712745"><ele>174.14</ele><time>2015-10-28T12:06:38Z</time></trkpt><trkpt lat="51.7892125715" lon="-2.1533867810"><ele>175.10</ele><time>2015-10-28T12:06:41Z</time></trkpt><trkpt lat="51.7892343644" lon="-2.1534181293"><ele>174.14</ele><time>2015-10-28T12:06:45Z</time></trkpt><trkpt lat="51.7892512120" lon="-2.1534428559"><ele>173.66</ele><time>2015-10-28T12:06:58Z</time></trkpt><trkpt lat="51.7892497871" lon="-2.1534487233"><ele>173.66</ele><time>2015-10-28T12:07:07Z</time></trkpt><trkpt lat="51.7892921157" lon="-2.1535260882"><ele>172.69</ele><time>2015-10-28T12:07:15Z</time></trkpt><trkpt lat="51.7893074546" lon="-2.1535698418"><ele>172.69</ele><time>2015-10-28T12:07:26Z</time></trkpt><trkpt lat="51.7893121485" lon="-2.1535971668"><ele>171.73</ele><time>2015-10-28T12:07:28Z</time></trkpt><trkpt lat="51.7893107235" lon="-2.1537016053"><ele>171.25</ele><time>2015-10-28T12:07:38Z</time></trkpt><trkpt lat="51.7893211171" lon="-2.1537637990"><ele>170.77</ele><time>2015-10-28T12:07:43Z</time></trkpt><trkpt lat="51.7893528845" lon="-2.1538072173"><ele>170.29</ele><time>2015-10-28T12:07:49Z</time></trkpt><trkpt lat="51.7893895134" lon="-2.1538240649"><ele>169.33</ele><time>2015-10-28T12:07:53Z</time></trkpt><trkpt lat="51.7894822173" lon="-2.1538765356"><ele>167.89</ele><time>2015-10-28T12:08:03Z</time></trkpt><trkpt lat="51.7895367835" lon="-2.1538979933"><ele>167.41</ele><time>2015-10-28T12:08:09Z</time></trkpt><trkpt lat="51.7895827163" lon="-2.1539270785"><ele>166.45</ele><time>2015-10-28T12:08:15Z</time></trkpt><trkpt lat="51.7896221112" lon="-2.1539450157"><ele>165.48</ele><time>2015-10-28T12:08:19Z</time></trkpt><trkpt lat="51.7896998115" lon="-2.1539926250"><ele>164.04</ele><time>2015-10-28T12:08:27Z</time></trkpt><trkpt lat="51.7897373624" lon="-2.1540113166"><ele>163.56</ele><time>2015-10-28T12:08:31Z</time></trkpt><trkpt lat="51.7898190860" lon="-2.1540526394"><ele>162.12</ele><time>2015-10-28T12:08:43Z</time></trkpt><trkpt lat="51.7898211814" lon="-2.1540802158"><ele>162.12</ele><time>2015-10-28T12:09:02Z</time></trkpt><trkpt lat="51.7898327485" lon="-2.1541229635"><ele>161.16</ele><time>2015-10-28T12:09:15Z</time></trkpt><trkpt lat="51.7898418847" lon="-2.1541543957"><ele>161.16</ele><time>2015-10-28T12:09:29Z</time></trkpt><trkpt lat="51.7898554634" lon="-2.1541740932"><ele>160.20</ele><time>2015-10-28T12:09:42Z</time></trkpt><trkpt lat="51.7898916733" lon="-2.1542183496"><ele>158.27</ele><time>2015-10-28T12:09:57Z</time></trkpt><trkpt lat="51.7899071798" lon="-2.1542377956"><ele>156.83</ele><time>2015-10-28T12:10:14Z</time></trkpt><trkpt lat="51.7899398692" lon="-2.1543139871"><ele>155.87</ele><time>2015-10-28T12:10:28Z</time></trkpt><trkpt lat="51.7899645120" lon="-2.1543784440"><ele>154.91</ele><time>2015-10-28T12:10:42Z</time></trkpt><trkpt lat="51.7899635062" lon="-2.1543822996"><ele>154.43</ele><time>2015-10-28T12:10:59Z</time></trkpt><trkpt lat="51.7899800185" lon="-2.1543821320"><ele>153.47</ele><time>2015-10-28T12:11:23Z</time></trkpt><trkpt lat="51.7900209222" lon="-2.1544239577"><ele>152.03</ele><time>2015-10-28T12:11:37Z</time></trkpt><trkpt lat="51.7900638375" lon="-2.1544956230"><ele>150.58</ele><time>2015-10-28T12:11:52Z</time></trkpt><trkpt lat="51.7900632508" lon="-2.1545198467"><ele>150.10</ele><time>2015-10-28T12:11:57Z</time></trkpt><trkpt lat="51.7900862172" lon="-2.1546255425"><ele>148.66</ele><time>2015-10-28T12:12:08Z</time></trkpt><trkpt lat="51.7901132070" lon="-2.1546647698"><ele>148.18</ele><time>2015-10-28T12:12:28Z</time></trkpt><trkpt lat="51.7901059985" lon="-2.1546746604"><ele>148.18</ele><time>2015-10-28T12:12:54Z</time></trkpt><trkpt lat="51.7900956888" lon="-2.1546755824"><ele>148.18</ele><time>2015-10-28T12:13:21Z</time></trkpt><trkpt lat="51.7901217565" lon="-2.1547427215"><ele>148.18</ele><time>2015-10-28T12:13:35Z</time></trkpt><trkpt lat="51.7901539430" lon="-2.1548138838"><ele>148.18</ele><time>2015-10-28T12:13:43Z</time></trkpt><trkpt lat="51.7901804298" lon="-2.1548602358"><ele>147.70</ele><time>2015-10-28T12:13:47Z</time></trkpt><trkpt lat="51.7902059108" lon="-2.1548881475"><ele>148.18</ele><time>2015-10-28T12:13:53Z</time></trkpt><trkpt lat="51.7902529333" lon="-2.1549741458"><ele>147.70</ele><time>2015-10-28T12:14:03Z</time></trkpt><trkpt lat="51.7902976088" lon="-2.1550176479"><ele>147.22</ele><time>2015-10-28T12:14:09Z</time></trkpt><trkpt lat="51.7903634906" lon="-2.1550986171"><ele>146.26</ele><time>2015-10-28T12:14:19Z</time></trkpt><trkpt lat="51.7903922405" lon="-2.1551453043"><ele>146.26</ele><time>2015-10-28T12:14:23Z</time></trkpt><trkpt lat="51.7904256005" lon="-2.1551889740"><ele>145.78</ele><time>2015-10-28T12:14:27Z</time></trkpt><trkpt lat="51.7904585414" lon="-2.1552236751"><ele>145.30</ele><time>2015-10-28T12:14:32Z</time></trkpt><trkpt lat="51.7905135266" lon="-2.1552825160"><ele>143.37</ele><time>2015-10-28T12:14:43Z</time></trkpt><trkpt lat="51.7905629799" lon="-2.1553132776"><ele>141.93</ele><time>2015-10-28T12:14:53Z</time></trkpt><trkpt lat="51.7906191386" lon="-2.1553339809"><ele>141.45</ele><time>2015-10-28T12:15:05Z</time></trkpt><trkpt lat="51.7906657420" lon="-2.1553586237"><ele>140.49</ele><time>2015-10-28T12:15:13Z</time></trkpt><trkpt lat="51.7907580268" lon="-2.1553964261"><ele>138.57</ele><time>2015-10-28T12:15:23Z</time></trkpt><trkpt lat="51.7908213940" lon="-2.1554330550"><ele>137.61</ele><time>2015-10-28T12:15:32Z</time></trkpt><trkpt lat="51.7908995971" lon="-2.1554678399"><ele>135.68</ele><time>2015-10-28T12:15:43Z</time></trkpt><trkpt lat="51.7909372319" lon="-2.1554740425"><ele>133.28</ele><time>2015-10-28T12:15:55Z</time></trkpt><trkpt lat="51.7909835838" lon="-2.1555160359"><ele>133.28</ele><time>2015-10-28T12:16:04Z</time></trkpt><trkpt lat="51.7910137586" lon="-2.1555168740"><ele>132.32</ele><time>2015-10-28T12:16:15Z</time></trkpt><trkpt lat="51.7910386529" lon="-2.1555519942"><ele>132.80</ele><time>2015-10-28T12:16:32Z</time></trkpt><trkpt lat="51.7910533212" lon="-2.1555509046"><ele>132.32</ele><time>2015-10-28T12:16:50Z</time></trkpt><trkpt lat="51.7910633795" lon="-2.1555478871"><ele>132.32</ele><time>2015-10-28T12:16:52Z</time></trkpt><trkpt lat="51.7911365535" lon="-2.1555531677"><ele>131.36</ele><time>2015-10-28T12:17:02Z</time></trkpt><trkpt lat="51.7912331130" lon="-2.1555895451"><ele>130.88</ele><time>2015-10-28T12:17:15Z</time></trkpt><trkpt lat="51.7912891041" lon="-2.1556203067"><ele>130.40</ele><time>2015-10-28T12:17:29Z</time></trkpt><trkpt lat="51.7913215421" lon="-2.1556539182"><ele>130.40</ele><time>2015-10-28T12:17:47Z</time></trkpt><trkpt lat="51.7913378030" lon="-2.1558030322"><ele>129.92</ele><time>2015-10-28T12:18:00Z</time></trkpt><trkpt lat="51.7913853284" lon="-2.1559748612"><ele>130.88</ele><time>2015-10-28T12:18:13Z</time></trkpt><trkpt lat="51.7914508749" lon="-2.1560893580"><ele>130.88</ele><time>2015-10-28T12:18:25Z</time></trkpt><trkpt lat="51.7915250547" lon="-2.1562193613"><ele>132.32</ele><time>2015-10-28T12:18:37Z</time></trkpt><trkpt lat="51.7916290741" lon="-2.1563770249"><ele>132.80</ele><time>2015-10-28T12:18:53Z</time></trkpt><trkpt lat="51.7917127255" lon="-2.1565264743"><ele>135.20</ele><time>2015-10-28T12:19:08Z</time></trkpt><trkpt lat="51.7917222809" lon="-2.1565498598"><ele>134.72</ele><time>2015-10-28T12:19:10Z</time></trkpt><trkpt lat="51.7917522881" lon="-2.1565916855"><ele>135.68</ele><time>2015-10-28T12:19:14Z</time></trkpt><trkpt lat="51.7918418907" lon="-2.1567249577"><ele>136.64</ele><time>2015-10-28T12:19:26Z</time></trkpt><trkpt lat="51.7918476742" lon="-2.1567284781"><ele>136.64</ele><time>2015-10-28T12:19:27Z</time></trkpt><trkpt lat="51.7919112090" lon="-2.1568232775"><ele>137.13</ele><time>2015-10-28T12:19:37Z</time></trkpt><trkpt lat="51.7919219378" lon="-2.1570002194"><ele>137.13</ele><time>2015-10-28T12:19:50Z</time></trkpt><trkpt lat="51.7919346783" lon="-2.1570601501"><ele>137.61</ele><time>2015-10-28T12:20:06Z</time></trkpt><trkpt lat="51.7920061760" lon="-2.1570875589"><ele>140.01</ele><time>2015-10-28T12:20:22Z</time></trkpt><trkpt lat="51.7920247838" lon="-2.1570903249"><ele>140.49</ele><time>2015-10-28T12:20:24Z</time></trkpt><trkpt lat="51.7921071779" lon="-2.1570185758"><ele>141.45</ele><time>2015-10-28T12:20:35Z</time></trkpt><trkpt lat="51.7921702098" lon="-2.1569189988"><ele>142.89</ele><time>2015-10-28T12:20:45Z</time></trkpt><trkpt lat="51.7922427133" lon="-2.1567822900"><ele>143.37</ele><time>2015-10-28T12:20:56Z</time></trkpt><trkpt lat="51.7922882270" lon="-2.1567123849"><ele>144.34</ele><time>2015-10-28T12:21:08Z</time></trkpt><trkpt lat="51.7923363391" lon="-2.1566009894"><ele>145.30</ele><time>2015-10-28T12:21:20Z</time></trkpt><trkpt lat="51.7923552822" lon="-2.1566090360"><ele>145.30</ele><time>2015-10-28T12:21:38Z</time></trkpt><trkpt lat="51.7924251873" lon="-2.1565405559"><ele>146.74</ele><time>2015-10-28T12:21:54Z</time></trkpt><trkpt lat="51.7925088387" lon="-2.1564890910"><ele>147.70</ele><time>2015-10-28T12:22:06Z</time></trkpt><trkpt lat="51.7925976031" lon="-2.1564487740"><ele>149.14</ele><time>2015-10-28T12:22:19Z</time></trkpt><trkpt lat="51.7926312145" lon="-2.1564136539"><ele>150.10</ele><time>2015-10-28T12:22:35Z</time></trkpt><trkpt lat="51.7926547676" lon="-2.1563918609"><ele>150.58</ele><time>2015-10-28T12:22:54Z</time></trkpt><trkpt lat="51.7926866189" lon="-2.1562905237"><ele>152.51</ele><time>2015-10-28T12:23:05Z</time></trkpt><trkpt lat="51.7927178834" lon="-2.1562938765"><ele>153.95</ele><time>2015-10-28T12:23:21Z</time></trkpt><trkpt lat="51.7927250918" lon="-2.1564358659"><ele>152.51</ele><time>2015-10-28T12:23:32Z</time></trkpt><trkpt lat="51.7927177157" lon="-2.1565921046"><ele>152.51</ele><time>2015-10-28T12:23:43Z</time></trkpt><trkpt lat="51.7927198950" lon="-2.1566624288"><ele>152.51</ele><time>2015-10-28T12:23:49Z</time></trkpt><trkpt lat="51.7927120999" lon="-2.1566935256"><ele>152.51</ele><time>2015-10-28T12:23:51Z</time></trkpt><trkpt lat="51.7926991079" lon="-2.1567664482"><ele>151.54</ele><time>2015-10-28T12:23:56Z</time></trkpt><trkpt lat="51.7926952522" lon="-2.1568018198"><ele>151.54</ele><time>2015-10-28T12:23:58Z</time></trkpt><trkpt lat="51.7926979344" lon="-2.1568790171"><ele>151.54</ele><time>2015-10-28T12:24:03Z</time></trkpt><trkpt lat="51.7926977668" lon="-2.1569599863"><ele>151.54</ele><time>2015-10-28T12:24:08Z</time></trkpt><trkpt lat="51.7927100044" lon="-2.1570207551"><ele>151.54</ele><time>2015-10-28T12:24:11Z</time></trkpt><trkpt lat="51.7926883791" lon="-2.1571186557"><ele>151.06</ele><time>2015-10-28T12:24:18Z</time></trkpt><trkpt lat="51.7926595453" lon="-2.1571817715"><ele>151.06</ele><time>2015-10-28T12:24:28Z</time></trkpt><trkpt lat="51.7926442903" lon="-2.1572892275"><ele>150.58</ele><time>2015-10-28T12:24:35Z</time></trkpt><trkpt lat="51.7926263530" lon="-2.1573631559"><ele>150.58</ele><time>2015-10-28T12:24:41Z</time></trkpt><trkpt lat="51.7925863713" lon="-2.1575281955"><ele>150.58</ele><time>2015-10-28T12:24:52Z</time></trkpt><trkpt lat="51.7925841920" lon="-2.1576094162"><ele>150.10</ele><time>2015-10-28T12:25:01Z</time></trkpt><trkpt lat="51.7925729603" lon="-2.1577535849"><ele>150.10</ele><time>2015-10-28T12:25:09Z</time></trkpt><trkpt lat="51.7925602198" lon="-2.1578484681"><ele>150.10</ele><time>2015-10-28T12:25:14Z</time></trkpt><trkpt lat="51.7925542686" lon="-2.1578876115"><ele>149.62</ele><time>2015-10-28T12:25:16Z</time></trkpt><trkpt lat="51.7925029714" lon="-2.1580857597"><ele>149.14</ele><time>2015-10-28T12:25:31Z</time></trkpt><trkpt lat="51.7925019655" lon="-2.1582179423"><ele>148.66</ele><time>2015-10-28T12:25:46Z</time></trkpt><trkpt lat="51.7924736347" lon="-2.1584274061"><ele>147.70</ele><time>2015-10-28T12:25:59Z</time></trkpt><trkpt lat="51.7924703658" lon="-2.1584465168"><ele>147.70</ele><time>2015-10-28T12:26:00Z</time></trkpt><trkpt lat="51.7924453877" lon="-2.1585533023"><ele>147.70</ele><time>2015-10-28T12:26:06Z</time></trkpt><trkpt lat="51.7924368382" lon="-2.1586030908"><ele>147.22</ele><time>2015-10-28T12:26:09Z</time></trkpt><trkpt lat="51.7924158834" lon="-2.1587380394"><ele>146.74</ele><time>2015-10-28T12:26:16Z</time></trkpt><trkpt lat="51.7923784163" lon="-2.1588568110"><ele>146.26</ele><time>2015-10-28T12:26:23Z</time></trkpt><trkpt lat="51.7923597246" lon="-2.1589429770"><ele>146.26</ele><time>2015-10-28T12:26:35Z</time></trkpt><trkpt lat="51.7923593894" lon="-2.1589709725"><ele>146.26</ele><time>2015-10-28T12:26:37Z</time></trkpt><trkpt lat="51.7923673522" lon="-2.1590501815"><ele>146.74</ele><time>2015-10-28T12:26:47Z</time></trkpt><trkpt lat="51.7924105190" lon="-2.1590208448"><ele>143.37</ele><time>2015-10-28T12:26:55Z</time></trkpt><trkpt lat="51.7924107704" lon="-2.1590205934"><ele>147.70</ele><time>2015-10-28T12:26:56Z</time></trkpt><trkpt lat="51.7924235947" lon="-2.1590000577"><ele>148.18</ele><time>2015-10-28T12:26:58Z</time></trkpt><trkpt lat="51.7924526799" lon="-2.1589576453"><ele>148.66</ele><time>2015-10-28T12:27:14Z</time></trkpt><trkpt lat="51.7924525961" lon="-2.1589588188"><ele>148.18</ele><time>2015-10-28T12:27:29Z</time></trkpt></trkseg></trk></gpx>